BAW39D EGKK-KMCO
Flight info
| Callsign | BAW39D |
|---|---|
| Flight time | 8h 22m |
| Altitude | 36000 |
| Route | NOVMA L620 SAM N19 ADKIK DCT PEWBI DCT MOPAT DCT RESNO/M084F370 NATE LOMSI/N0491F380 DCT TAFFY DCT PQI Q97 FRIAR/N0486F400 Q97 KALDA Q131 WAALT Y289 BAHAA DCT HIBAC ALYNA4 |
| Aircraft | B772/H-SDE2E3FGHIJ5LORVWXY/LB1D1 |
Departure
| Time | 2026-04-07 15:58 |
|---|---|
| Airport | London Gatwick Airport (EGKK) |
Arrival
| Time | 2026-04-08 00:20 |
|---|---|
| Airport | Orlando International Airport (KMCO) |
| Time | Latitude | Longitude | Altitude | Speed | Heading |
|---|---|---|---|---|---|
| 2026-04-07 14:25 | 51.15566 | -0.17101 | 208 ft | 0 kts | 168° |
| 2026-04-07 15:33 | 51.15573 | -0.17103 | 208 ft | 4 kts | 168° |
| 2026-04-07 15:33 | 51.15599 | -0.17112 | 218 ft | 4 kts | 168° |
| 2026-04-07 15:34 | 51.15623 | -0.17114 | 217 ft | 4 kts | 209° |
| 2026-04-07 15:34 | 51.15636 | -0.17091 | 218 ft | 1 kts | 258° |
| 2026-04-07 15:34 | 51.15641 | -0.17053 | 214 ft | 4 kts | 258° |
| 2026-04-07 15:34 | 51.15642 | -0.17044 | 213 ft | 0 kts | 258° |
| 2026-04-07 15:40 | 51.15641 | -0.17053 | 208 ft | 3 kts | 258° |
| 2026-04-07 15:40 | 51.15634 | -0.17107 | 210 ft | 6 kts | 258° |
| 2026-04-07 15:40 | 51.15625 | -0.17172 | 210 ft | 6 kts | 257° |
| 2026-04-07 15:41 | 51.15615 | -0.17236 | 217 ft | 6 kts | 256° |
| 2026-04-07 15:41 | 51.15607 | -0.17285 | 214 ft | 2 kts | 255° |
| 2026-04-07 15:41 | 51.15605 | -0.17298 | 213 ft | 0 kts | 255° |
| 2026-04-07 15:42 | 51.15605 | -0.17300 | 220 ft | 2 kts | 255° |
| 2026-04-07 15:43 | 51.15593 | -0.17377 | 216 ft | 8 kts | 256° |
| 2026-04-07 15:43 | 51.15561 | -0.17431 | 214 ft | 7 kts | 198° |
| 2026-04-07 15:43 | 51.15511 | -0.17427 | 218 ft | 7 kts | 169° |
| 2026-04-07 15:43 | 51.15463 | -0.17409 | 208 ft | 7 kts | 167° |
| 2026-04-07 15:44 | 51.15414 | -0.17392 | 210 ft | 7 kts | 168° |
| 2026-04-07 15:44 | 51.15359 | -0.17373 | 213 ft | 9 kts | 167° |
| 2026-04-07 15:44 | 51.15307 | -0.17412 | 215 ft | 9 kts | 240° |
| 2026-04-07 15:44 | 51.15291 | -0.17514 | 216 ft | 11 kts | 258° |
| 2026-04-07 15:45 | 51.15269 | -0.17678 | 215 ft | 19 kts | 257° |
| 2026-04-07 15:45 | 51.15241 | -0.17882 | 217 ft | 19 kts | 258° |
| 2026-04-07 15:45 | 51.15213 | -0.18087 | 212 ft | 19 kts | 258° |
| 2026-04-07 15:45 | 51.15188 | -0.18292 | 216 ft | 19 kts | 262° |
| 2026-04-07 15:46 | 51.15163 | -0.18497 | 215 ft | 19 kts | 257° |
| 2026-04-07 15:46 | 51.15134 | -0.18700 | 207 ft | 19 kts | 258° |
| 2026-04-07 15:46 | 51.15107 | -0.18905 | 214 ft | 19 kts | 257° |
| 2026-04-07 15:46 | 51.15078 | -0.19108 | 214 ft | 18 kts | 257° |
| 2026-04-07 15:47 | 51.15048 | -0.19248 | 221 ft | 11 kts | 222° |
| 2026-04-07 15:47 | 51.14977 | -0.19290 | 220 ft | 11 kts | 222° |
| 2026-04-07 15:47 | 51.14947 | -0.19401 | 217 ft | 11 kts | 256° |
| 2026-04-07 15:47 | 51.14927 | -0.19541 | 215 ft | 16 kts | 257° |
| 2026-04-07 15:48 | 51.14899 | -0.19744 | 220 ft | 22 kts | 257° |
| 2026-04-07 15:48 | 51.14865 | -0.19992 | 213 ft | 23 kts | 258° |
| 2026-04-07 15:48 | 51.14831 | -0.20242 | 213 ft | 23 kts | 257° |
| 2026-04-07 15:48 | 51.14796 | -0.20492 | 217 ft | 23 kts | 257° |
| 2026-04-07 15:49 | 51.14764 | -0.20727 | 212 ft | 19 kts | 258° |
| 2026-04-07 15:49 | 51.14742 | -0.20891 | 214 ft | 12 kts | 258° |
| 2026-04-07 15:49 | 51.14725 | -0.21013 | 218 ft | 10 kts | 257° |
| 2026-04-07 15:49 | 51.14711 | -0.21112 | 218 ft | 8 kts | 257° |
| 2026-04-07 15:50 | 51.14701 | -0.21184 | 211 ft | 2 kts | 257° |
| 2026-04-07 15:50 | 51.14700 | -0.21188 | 211 ft | 0 kts | 257° |
| 2026-04-07 15:54 | 51.14698 | -0.21203 | 208 ft | 5 kts | 257° |
| 2026-04-07 15:54 | 51.14689 | -0.21266 | 212 ft | 6 kts | 257° |
| 2026-04-07 15:54 | 51.14672 | -0.21323 | 219 ft | 6 kts | 219° |
| 2026-04-07 15:54 | 51.14637 | -0.21332 | 214 ft | 4 kts | 174° |
| 2026-04-07 15:55 | 51.14629 | -0.21329 | 213 ft | 0 kts | 170° |
| 2026-04-07 15:56 | 51.14603 | -0.21320 | 214 ft | 9 kts | 163° |
| 2026-04-07 15:56 | 51.14531 | -0.21241 | 218 ft | 14 kts | 124° |
| 2026-04-07 15:57 | 51.14531 | -0.21086 | 214 ft | 14 kts | 79° |
| 2026-04-07 15:57 | 51.14568 | -0.20807 | 218 ft | 48 kts | 78° |
| 2026-04-07 15:57 | 51.14691 | -0.19926 | 214 ft | 113 kts | 77° |
| 2026-04-07 15:57 | 51.14902 | -0.18411 | 221 ft | 165 kts | 78° |
| 2026-04-07 15:58 | 51.15171 | -0.16623 | 811 ft | 165 kts | 78° |
| 2026-04-07 15:58 | 51.15453 | -0.14815 | 1471 ft | 171 kts | 82° |
| 2026-04-07 15:58 | 51.15732 | -0.12839 | 1885 ft | 195 kts | 83° |
| 2026-04-07 15:58 | 51.16027 | -0.10645 | 2342 ft | 207 kts | 82° |
| 2026-04-07 15:59 | 51.16345 | -0.08332 | 2803 ft | 217 kts | 77° |
| 2026-04-07 15:59 | 51.17107 | -0.06250 | 3014 ft | 229 kts | 44° |
| 2026-04-07 15:59 | 51.18610 | -0.05285 | 3324 ft | 244 kts | 5° |
| 2026-04-07 15:59 | 51.20292 | -0.05555 | 3976 ft | 244 kts | 346° |
| 2026-04-07 16:00 | 51.21831 | -0.06739 | 4437 ft | 248 kts | 311° |
| 2026-04-07 16:00 | 51.22626 | -0.09079 | 5116 ft | 240 kts | 271° |
| 2026-04-07 16:00 | 51.22450 | -0.11688 | 5574 ft | 239 kts | 255° |
| 2026-04-07 16:00 | 51.22239 | -0.14363 | 6024 ft | 253 kts | 260° |
| 2026-04-07 16:01 | 51.21983 | -0.17285 | 6155 ft | 273 kts | 257° |
| 2026-04-07 16:01 | 51.21624 | -0.20268 | 6930 ft | 273 kts | 256° |
| 2026-04-07 16:01 | 51.21254 | -0.23234 | 7677 ft | 275 kts | 256° |
| 2026-04-07 16:01 | 51.20893 | -0.26236 | 8417 ft | 276 kts | 255° |
| 2026-04-07 16:02 | 51.20536 | -0.29245 | 9147 ft | 278 kts | 255° |
| 2026-04-07 16:02 | 51.20178 | -0.32292 | 9839 ft | 282 kts | 256° |
| 2026-04-07 16:02 | 51.19811 | -0.35376 | 10486 ft | 285 kts | 255° |
| 2026-04-07 16:02 | 51.19396 | -0.38563 | 10719 ft | 305 kts | 255° |
| 2026-04-07 16:03 | 51.18943 | -0.41986 | 10880 ft | 326 kts | 255° |
| 2026-04-07 16:03 | 51.18460 | -0.45645 | 11048 ft | 348 kts | 255° |
| 2026-04-07 16:03 | 51.17951 | -0.49514 | 11396 ft | 364 kts | 255° |
| 2026-04-07 16:03 | 51.17413 | -0.53501 | 11995 ft | 369 kts | 253° |
| 2026-04-07 16:04 | 51.16609 | -0.57417 | 12586 ft | 375 kts | 246° |
| 2026-04-07 16:04 | 51.15582 | -0.61235 | 13350 ft | 376 kts | 243° |
| 2026-04-07 16:04 | 51.14508 | -0.64992 | 14104 ft | 378 kts | 243° |
| 2026-04-07 16:04 | 51.13406 | -0.68845 | 14678 ft | 384 kts | 244° |
| 2026-04-07 16:05 | 51.12317 | -0.72724 | 15157 ft | 381 kts | 244° |
| 2026-04-07 16:05 | 51.11249 | -0.76600 | 15699 ft | 383 kts | 244° |
| 2026-04-07 16:05 | 51.10183 | -0.80506 | 16275 ft | 388 kts | 245° |
| 2026-04-07 16:05 | 51.09110 | -0.84467 | 16828 ft | 393 kts | 245° |
| 2026-04-07 16:06 | 51.08010 | -0.88540 | 17414 ft | 396 kts | 245° |
| 2026-04-07 16:06 | 51.06937 | -0.92520 | 18080 ft | 397 kts | 245° |
| 2026-04-07 16:06 | 51.05845 | -0.96562 | 18679 ft | 398 kts | 245° |
| 2026-04-07 16:06 | 51.04743 | -1.00628 | 19156 ft | 402 kts | 244° |
| 2026-04-07 16:07 | 51.03630 | -1.04737 | 19584 ft | 407 kts | 245° |
| 2026-04-07 16:07 | 51.02504 | -1.08879 | 20013 ft | 410 kts | 245° |
| 2026-04-07 16:07 | 51.01365 | -1.13061 | 20434 ft | 415 kts | 245° |
| 2026-04-07 16:07 | 51.00221 | -1.17262 | 20958 ft | 415 kts | 245° |
| 2026-04-07 16:08 | 50.99071 | -1.21475 | 21482 ft | 416 kts | 245° |
| 2026-04-07 16:08 | 50.97910 | -1.25719 | 21864 ft | 421 kts | 245° |
| 2026-04-07 16:08 | 50.96737 | -1.29994 | 22232 ft | 426 kts | 245° |
| 2026-04-07 16:08 | 50.95659 | -1.34380 | 22795 ft | 426 kts | 250° |
| 2026-04-07 16:09 | 50.94861 | -1.38932 | 23228 ft | 431 kts | 257° |
| 2026-04-07 16:09 | 50.94290 | -1.43621 | 23592 ft | 436 kts | 257° |
| 2026-04-07 16:09 | 50.93712 | -1.48341 | 24034 ft | 436 kts | 257° |
| 2026-04-07 16:09 | 50.93123 | -1.53060 | 24486 ft | 437 kts | 257° |
| 2026-04-07 16:10 | 50.92522 | -1.57800 | 24782 ft | 441 kts | 257° |
| 2026-04-07 16:10 | 50.91909 | -1.62580 | 25110 ft | 443 kts | 257° |
| 2026-04-07 16:10 | 50.91290 | -1.67377 | 25511 ft | 444 kts | 257° |
| 2026-04-07 16:10 | 50.90668 | -1.72171 | 25890 ft | 446 kts | 257° |
| 2026-04-07 16:11 | 50.90038 | -1.77009 | 26073 ft | 452 kts | 257° |
| 2026-04-07 16:11 | 50.89401 | -1.81891 | 26117 ft | 453 kts | 257° |
| 2026-04-07 16:11 | 50.88766 | -1.86745 | 26149 ft | 448 kts | 257° |
| 2026-04-07 16:11 | 50.88131 | -1.91588 | 26402 ft | 450 kts | 257° |
| 2026-04-07 16:12 | 50.87493 | -1.96427 | 26767 ft | 451 kts | 257° |
| 2026-04-07 16:12 | 50.86846 | -2.01322 | 27148 ft | 452 kts | 256° |
| 2026-04-07 16:12 | 50.86198 | -2.06214 | 27447 ft | 455 kts | 256° |
| 2026-04-07 16:12 | 50.85555 | -2.11066 | 27701 ft | 459 kts | 256° |
| 2026-04-07 16:13 | 50.84897 | -2.16023 | 28094 ft | 459 kts | 256° |
| 2026-04-07 16:13 | 50.84238 | -2.20974 | 28427 ft | 461 kts | 256° |
| 2026-04-07 16:13 | 50.83571 | -2.25959 | 28608 ft | 466 kts | 256° |
| 2026-04-07 16:13 | 50.82899 | -2.30977 | 28935 ft | 466 kts | 256° |
| 2026-04-07 16:14 | 50.82226 | -2.35985 | 29303 ft | 466 kts | 256° |
| 2026-04-07 16:14 | 50.81550 | -2.41006 | 29614 ft | 467 kts | 256° |
| 2026-04-07 16:14 | 50.80868 | -2.46042 | 29883 ft | 467 kts | 256° |
| 2026-04-07 16:14 | 50.80448 | -2.51158 | 30082 ft | 473 kts | 266° |
| 2026-04-07 16:15 | 50.80585 | -2.56364 | 30356 ft | 476 kts | 274° |
| 2026-04-07 16:15 | 50.81151 | -2.61531 | 30677 ft | 477 kts | 281° |
| 2026-04-07 16:15 | 50.82173 | -2.66533 | 31006 ft | 478 kts | 286° |
| 2026-04-07 16:15 | 50.83295 | -2.71477 | 31294 ft | 477 kts | 287° |
| 2026-04-07 16:16 | 50.84418 | -2.76414 | 31590 ft | 477 kts | 286° |
| 2026-04-07 16:16 | 50.85534 | -2.81358 | 31879 ft | 476 kts | 286° |
| 2026-04-07 16:16 | 50.86635 | -2.86301 | 32135 ft | 477 kts | 285° |
| 2026-04-07 16:16 | 50.87713 | -2.91201 | 32397 ft | 477 kts | 285° |
| 2026-04-07 16:17 | 50.88792 | -2.96154 | 32721 ft | 475 kts | 285° |
| 2026-04-07 16:17 | 50.89864 | -3.01099 | 33035 ft | 474 kts | 284° |
| 2026-04-07 16:17 | 50.90929 | -3.06033 | 33358 ft | 473 kts | 284° |
| 2026-04-07 16:17 | 50.91990 | -3.10961 | 33662 ft | 472 kts | 284° |
| 2026-04-07 16:18 | 50.93046 | -3.15882 | 33939 ft | 472 kts | 284° |
| 2026-04-07 16:18 | 50.94100 | -3.20801 | 34223 ft | 471 kts | 284° |
| 2026-04-07 16:18 | 50.95150 | -3.25708 | 34460 ft | 470 kts | 284° |
| 2026-04-07 16:18 | 50.96198 | -3.30616 | 34692 ft | 470 kts | 284° |
| 2026-04-07 16:19 | 50.98296 | -3.40497 | 34933 ft | 474 kts | 284° |
| 2026-04-07 16:19 | 50.99349 | -3.45465 | 35204 ft | 473 kts | 284° |
| 2026-04-07 16:19 | 51.00395 | -3.50405 | 35466 ft | 471 kts | 284° |
| 2026-04-07 16:20 | 51.01434 | -3.55335 | 35695 ft | 471 kts | 284° |
| 2026-04-07 16:20 | 51.02470 | -3.60261 | 35889 ft | 471 kts | 284° |
| 2026-04-07 16:20 | 51.03156 | -3.63529 | 35999 ft | 471 kts | 284° |
| 2026-04-07 16:20 | 51.04193 | -3.68478 | 36043 ft | 474 kts | 284° |
| 2026-04-07 16:21 | 51.06274 | -3.78453 | 36085 ft | 475 kts | 284° |
| 2026-04-07 16:21 | 51.08335 | -3.88367 | 36071 ft | 470 kts | 284° |
| 2026-04-07 16:22 | 51.10371 | -3.98218 | 36081 ft | 467 kts | 284° |
| 2026-04-07 16:22 | 51.12290 | -4.07555 | 36074 ft | 466 kts | 284° |
| 2026-04-07 16:23 | 51.14299 | -4.17373 | 36088 ft | 466 kts | 284° |
| 2026-04-07 16:23 | 51.16302 | -4.27214 | 36077 ft | 467 kts | 284° |
| 2026-04-07 16:24 | 51.18301 | -4.37082 | 36079 ft | 469 kts | 283° |
| 2026-04-07 16:24 | 51.20297 | -4.46985 | 36079 ft | 470 kts | 283° |
| 2026-04-07 16:25 | 51.22293 | -4.56936 | 36081 ft | 471 kts | 283° |
| 2026-04-07 16:25 | 51.24271 | -4.66844 | 36091 ft | 472 kts | 283° |
| 2026-04-07 16:26 | 51.26256 | -4.76842 | 36078 ft | 473 kts | 283° |
| 2026-04-07 16:26 | 51.28237 | -4.86873 | 36075 ft | 473 kts | 283° |
| 2026-04-07 16:27 | 51.30208 | -4.96896 | 36074 ft | 473 kts | 283° |
| 2026-04-07 16:27 | 51.31887 | -5.07029 | 36068 ft | 468 kts | 275° |
| 2026-04-07 16:28 | 51.32859 | -5.17280 | 36078 ft | 467 kts | 274° |
| 2026-04-07 16:28 | 51.33811 | -5.27547 | 36080 ft | 466 kts | 274° |
| 2026-04-07 16:29 | 51.34780 | -5.37796 | 36078 ft | 466 kts | 274° |
| 2026-04-07 16:29 | 51.35757 | -5.48058 | 36076 ft | 466 kts | 274° |
| 2026-04-07 16:30 | 51.36726 | -5.58313 | 36076 ft | 466 kts | 274° |
| 2026-04-07 16:30 | 51.37684 | -5.68556 | 36081 ft | 466 kts | 274° |
| 2026-04-07 16:31 | 51.38626 | -5.78742 | 36085 ft | 466 kts | 274° |
| 2026-04-07 16:31 | 51.39567 | -5.89020 | 36077 ft | 467 kts | 274° |
| 2026-04-07 16:32 | 51.40500 | -5.99310 | 36078 ft | 467 kts | 274° |
| 2026-04-07 16:32 | 51.41426 | -6.09618 | 36078 ft | 467 kts | 274° |
| 2026-04-07 16:33 | 51.42342 | -6.19924 | 36075 ft | 468 kts | 274° |
| 2026-04-07 16:33 | 51.43250 | -6.30256 | 36079 ft | 468 kts | 274° |
| 2026-04-07 16:34 | 51.44150 | -6.40597 | 36070 ft | 469 kts | 274° |
| 2026-04-07 16:34 | 51.45041 | -6.50935 | 36073 ft | 468 kts | 274° |
| 2026-04-07 16:35 | 51.45924 | -6.61298 | 36071 ft | 468 kts | 274° |
| 2026-04-07 16:35 | 51.46797 | -6.71645 | 36070 ft | 468 kts | 274° |
| 2026-04-07 16:36 | 51.47653 | -6.81915 | 36078 ft | 467 kts | 274° |
| 2026-04-07 16:36 | 51.48506 | -6.92243 | 36071 ft | 466 kts | 273° |
| 2026-04-07 16:37 | 51.49378 | -7.02547 | 36069 ft | 466 kts | 277° |
| 2026-04-07 16:37 | 51.51661 | -7.12361 | 36080 ft | 476 kts | 295° |
| 2026-04-07 16:38 | 51.55622 | -7.20939 | 36092 ft | 481 kts | 306° |
| 2026-04-07 16:38 | 51.59950 | -7.29175 | 36087 ft | 483 kts | 305° |
| 2026-04-07 16:39 | 51.64276 | -7.37494 | 36078 ft | 485 kts | 305° |
| 2026-04-07 16:39 | 51.68568 | -7.45879 | 36078 ft | 486 kts | 304° |
| 2026-04-07 16:40 | 51.72828 | -7.54277 | 36076 ft | 487 kts | 304° |
| 2026-04-07 16:40 | 51.77113 | -7.62759 | 36074 ft | 488 kts | 304° |
| 2026-04-07 16:41 | 51.81404 | -7.71274 | 36081 ft | 488 kts | 304° |
| 2026-04-07 16:41 | 51.85687 | -7.79800 | 36071 ft | 488 kts | 304° |
| 2026-04-07 16:42 | 51.89961 | -7.88336 | 36079 ft | 488 kts | 304° |
| 2026-04-07 16:42 | 51.94230 | -7.96889 | 36074 ft | 488 kts | 304° |
| 2026-04-07 16:43 | 51.98483 | -8.05442 | 36061 ft | 487 kts | 304° |
| 2026-04-07 16:43 | 52.02734 | -8.14016 | 36073 ft | 486 kts | 303° |
| 2026-04-07 16:44 | 52.06969 | -8.22591 | 36070 ft | 486 kts | 303° |
| 2026-04-07 16:44 | 52.11193 | -8.31169 | 36064 ft | 485 kts | 303° |
| 2026-04-07 16:45 | 52.15403 | -8.39748 | 36095 ft | 485 kts | 303° |
| 2026-04-07 16:45 | 52.19583 | -8.48297 | 36064 ft | 485 kts | 303° |
| 2026-04-07 16:46 | 52.23778 | -8.56904 | 36075 ft | 485 kts | 302° |
| 2026-04-07 16:46 | 52.27969 | -8.65532 | 36065 ft | 485 kts | 302° |
| 2026-04-07 16:47 | 52.32155 | -8.74179 | 36059 ft | 485 kts | 302° |
| 2026-04-07 16:47 | 52.36331 | -8.82835 | 36064 ft | 485 kts | 302° |
| 2026-04-07 16:48 | 52.40539 | -8.91595 | 36067 ft | 493 kts | 302° |
| 2026-04-07 16:49 | 52.46948 | -9.04989 | 36089 ft | 501 kts | 302° |
| 2026-04-07 16:49 | 52.51232 | -9.13976 | 36076 ft | 505 kts | 302° |
| 2026-04-07 16:50 | 52.55562 | -9.23088 | 36072 ft | 507 kts | 302° |
| 2026-04-07 16:50 | 52.59930 | -9.32315 | 36069 ft | 509 kts | 302° |
| 2026-04-07 16:51 | 52.64273 | -9.41522 | 36078 ft | 509 kts | 301° |
| 2026-04-07 16:51 | 52.68579 | -9.50687 | 36068 ft | 509 kts | 301° |
| 2026-04-07 16:52 | 52.72896 | -9.59907 | 36090 ft | 507 kts | 301° |
| 2026-04-07 16:52 | 52.77198 | -9.69128 | 36079 ft | 505 kts | 301° |
| 2026-04-07 16:53 | 52.81476 | -9.78334 | 36054 ft | 504 kts | 301° |
| 2026-04-07 16:53 | 52.85731 | -9.87524 | 36075 ft | 502 kts | 301° |
| 2026-04-07 16:54 | 52.89967 | -9.96705 | 36068 ft | 501 kts | 301° |
| 2026-04-07 16:54 | 52.94189 | -10.05891 | 36067 ft | 500 kts | 301° |
| 2026-04-07 16:55 | 52.98389 | -10.15062 | 36068 ft | 499 kts | 300° |
| 2026-04-07 16:55 | 53.02582 | -10.24254 | 36087 ft | 500 kts | 301° |
| 2026-04-07 16:56 | 53.06773 | -10.33472 | 36078 ft | 500 kts | 300° |
| 2026-04-07 16:56 | 53.10940 | -10.42670 | 36075 ft | 501 kts | 300° |
| 2026-04-07 16:57 | 53.15131 | -10.51955 | 36071 ft | 502 kts | 300° |
| 2026-04-07 16:57 | 53.19321 | -10.61272 | 36074 ft | 502 kts | 300° |
| 2026-04-07 16:58 | 53.23507 | -10.70612 | 36070 ft | 503 kts | 300° |
| 2026-04-07 16:58 | 53.27689 | -10.79981 | 36086 ft | 504 kts | 300° |
| 2026-04-07 16:59 | 53.31874 | -10.89392 | 36081 ft | 505 kts | 300° |
| 2026-04-07 16:59 | 53.36065 | -10.98851 | 36088 ft | 505 kts | 300° |
| 2026-04-07 17:00 | 53.40246 | -11.08322 | 36087 ft | 506 kts | 300° |
| 2026-04-07 17:00 | 53.44426 | -11.17826 | 36091 ft | 506 kts | 300° |
| 2026-04-07 17:01 | 53.48598 | -11.27347 | 36108 ft | 507 kts | 299° |
| 2026-04-07 17:01 | 53.52743 | -11.36845 | 36100 ft | 507 kts | 299° |
| 2026-04-07 17:02 | 53.56908 | -11.46423 | 36124 ft | 508 kts | 300° |
| 2026-04-07 17:02 | 53.61074 | -11.56043 | 36110 ft | 508 kts | 300° |
| 2026-04-07 17:03 | 53.65232 | -11.65676 | 36107 ft | 508 kts | 299° |
| 2026-04-07 17:03 | 53.69382 | -11.75329 | 36121 ft | 508 kts | 299° |
| 2026-04-07 17:04 | 53.73523 | -11.84999 | 36093 ft | 507 kts | 299° |
| 2026-04-07 17:04 | 53.77647 | -11.94665 | 36093 ft | 506 kts | 299° |
| 2026-04-07 17:05 | 53.81753 | -12.04328 | 36113 ft | 505 kts | 299° |
| 2026-04-07 17:05 | 53.85821 | -12.13941 | 36132 ft | 504 kts | 300° |
| 2026-04-07 17:06 | 53.89896 | -12.23604 | 36119 ft | 503 kts | 300° |
| 2026-04-07 17:06 | 53.93949 | -12.33251 | 36108 ft | 502 kts | 300° |
| 2026-04-07 17:07 | 53.97987 | -12.42902 | 36105 ft | 500 kts | 300° |
| 2026-04-07 17:07 | 54.02003 | -12.52537 | 36102 ft | 499 kts | 300° |
| 2026-04-07 17:08 | 54.06006 | -12.62178 | 36104 ft | 498 kts | 300° |
| 2026-04-07 17:08 | 54.09994 | -12.71822 | 36122 ft | 498 kts | 300° |
| 2026-04-07 17:09 | 54.13977 | -12.81487 | 36129 ft | 498 kts | 301° |
| 2026-04-07 17:09 | 54.17277 | -12.89525 | 36114 ft | 497 kts | 301° |
| 2026-04-07 17:10 | 54.21234 | -12.99200 | 36102 ft | 496 kts | 301° |
| 2026-04-07 17:10 | 54.25175 | -13.08869 | 36104 ft | 495 kts | 301° |
| 2026-04-07 17:11 | 54.29103 | -13.18546 | 36127 ft | 494 kts | 301° |
| 2026-04-07 17:11 | 54.32990 | -13.28158 | 36095 ft | 494 kts | 301° |
| 2026-04-07 17:12 | 54.36892 | -13.37844 | 36108 ft | 493 kts | 300° |
| 2026-04-07 17:12 | 54.40779 | -13.47533 | 36129 ft | 493 kts | 301° |
| 2026-04-07 17:13 | 54.44655 | -13.57233 | 36102 ft | 492 kts | 301° |
| 2026-04-07 17:13 | 54.48518 | -13.66930 | 36108 ft | 491 kts | 301° |
| 2026-04-07 17:14 | 54.52362 | -13.76623 | 36106 ft | 490 kts | 301° |
| 2026-04-07 17:14 | 54.56195 | -13.86325 | 36104 ft | 489 kts | 301° |
| 2026-04-07 17:15 | 54.60012 | -13.96024 | 36106 ft | 488 kts | 301° |
| 2026-04-07 17:15 | 54.63814 | -14.05726 | 36106 ft | 488 kts | 301° |
| 2026-04-07 17:16 | 54.67609 | -14.15444 | 36101 ft | 487 kts | 301° |
| 2026-04-07 17:16 | 54.71390 | -14.25169 | 36109 ft | 487 kts | 301° |
| 2026-04-07 17:17 | 54.75155 | -14.34885 | 36102 ft | 485 kts | 301° |
| 2026-04-07 17:17 | 54.78878 | -14.44532 | 36099 ft | 484 kts | 301° |
| 2026-04-07 17:18 | 54.82609 | -14.54240 | 36095 ft | 483 kts | 301° |
| 2026-04-07 17:18 | 54.86325 | -14.63946 | 36095 ft | 482 kts | 301° |
| 2026-04-07 17:19 | 54.90033 | -14.73669 | 36132 ft | 483 kts | 300° |
| 2026-04-07 17:19 | 54.91873 | -14.78506 | 36578 ft | 474 kts | 300° |
| 2026-04-07 17:19 | 54.93667 | -14.83226 | 37280 ft | 462 kts | 300° |
| 2026-04-07 17:19 | 54.95432 | -14.87886 | 37636 ft | 459 kts | 300° |
| 2026-04-07 17:20 | 54.97186 | -14.92528 | 37807 ft | 460 kts | 300° |
| 2026-04-07 17:20 | 55.00468 | -15.02089 | 37978 ft | 460 kts | 292° |
| 2026-04-07 17:21 | 55.02860 | -15.12403 | 38088 ft | 460 kts | 288° |
| 2026-04-07 17:21 | 55.03976 | -15.17490 | 37171 ft | 460 kts | 290° |
| 2026-04-07 17:21 | 55.05124 | -15.22717 | 37202 ft | 463 kts | 290° |
| 2026-04-07 17:22 | 55.07372 | -15.32986 | 37142 ft | 457 kts | 294° |
| 2026-04-07 17:22 | 55.09693 | -15.43402 | 37171 ft | 465 kts | 294° |
| 2026-04-07 17:23 | 55.12057 | -15.54057 | 37175 ft | 475 kts | 294° |
| 2026-04-07 17:23 | 55.14451 | -15.64948 | 37179 ft | 485 kts | 295° |
| 2026-04-07 17:24 | 55.16882 | -15.76083 | 37174 ft | 494 kts | 296° |
| 2026-04-07 17:24 | 55.19349 | -15.87427 | 37179 ft | 504 kts | 296° |
| 2026-04-07 17:25 | 55.21851 | -15.99010 | 37173 ft | 513 kts | 296° |
| 2026-04-07 17:25 | 55.24380 | -16.10797 | 37168 ft | 521 kts | 297° |
| 2026-04-07 17:26 | 55.26938 | -16.22777 | 37195 ft | 529 kts | 297° |
| 2026-04-07 17:26 | 55.29524 | -16.34950 | 37175 ft | 535 kts | 297° |
| 2026-04-07 17:27 | 55.32120 | -16.47267 | 37161 ft | 542 kts | 298° |
| 2026-04-07 17:27 | 55.34696 | -16.59566 | 37158 ft | 548 kts | 301° |
| 2026-04-07 17:28 | 55.37345 | -16.72246 | 37194 ft | 556 kts | 301° |
| 2026-04-07 17:28 | 55.39997 | -16.84998 | 37152 ft | 565 kts | 289° |
| 2026-04-07 17:29 | 55.42688 | -16.98104 | 37179 ft | 574 kts | 286° |
| 2026-04-07 17:29 | 55.45400 | -17.11444 | 37175 ft | 583 kts | 286° |
| 2026-04-07 17:30 | 55.48150 | -17.25014 | 37174 ft | 592 kts | 286° |
| 2026-04-07 17:30 | 55.50901 | -17.38650 | 37193 ft | 600 kts | 286° |
| 2026-04-07 17:31 | 55.53698 | -17.52631 | 37194 ft | 602 kts | 295° |
| 2026-04-07 17:31 | 55.56435 | -17.66406 | 37158 ft | 589 kts | 295° |
| 2026-04-07 17:32 | 55.59135 | -17.80052 | 37172 ft | 589 kts | 295° |
| 2026-04-07 17:32 | 55.61823 | -17.93740 | 37175 ft | 590 kts | 294° |
| 2026-04-07 17:33 | 55.64484 | -18.07402 | 37174 ft | 591 kts | 294° |
| 2026-04-07 17:33 | 55.67147 | -18.21180 | 37178 ft | 592 kts | 294° |
| 2026-04-07 17:34 | 55.69799 | -18.35007 | 37172 ft | 593 kts | 294° |
| 2026-04-07 17:34 | 55.72440 | -18.48870 | 37170 ft | 594 kts | 294° |
| 2026-04-07 17:35 | 55.75071 | -18.62778 | 37175 ft | 594 kts | 294° |
| 2026-04-07 17:35 | 55.77686 | -18.76707 | 37173 ft | 594 kts | 294° |
| 2026-04-07 17:36 | 55.80283 | -18.90644 | 37174 ft | 594 kts | 293° |
| 2026-04-07 17:36 | 55.82868 | -19.04620 | 37169 ft | 594 kts | 293° |
| 2026-04-07 17:37 | 55.85433 | -19.18587 | 37171 ft | 594 kts | 293° |
| 2026-04-07 17:37 | 55.87984 | -19.32587 | 37176 ft | 594 kts | 293° |
| 2026-04-07 17:38 | 55.90514 | -19.46575 | 37169 ft | 594 kts | 293° |
| 2026-04-07 17:38 | 55.93030 | -19.60593 | 37171 ft | 593 kts | 292° |
| 2026-04-07 17:39 | 55.95530 | -19.74629 | 37171 ft | 593 kts | 292° |
| 2026-04-07 17:39 | 55.97996 | -19.88576 | 37172 ft | 593 kts | 292° |
| 2026-04-07 17:40 | 56.00460 | -20.02651 | 37173 ft | 594 kts | 291° |
| 2026-04-07 17:40 | 56.02606 | -20.16937 | 37173 ft | 596 kts | 288° |
| 2026-04-07 17:41 | 56.04535 | -20.31358 | 37172 ft | 596 kts | 287° |
| 2026-04-07 17:41 | 56.06477 | -20.45771 | 37171 ft | 596 kts | 288° |
| 2026-04-07 17:42 | 56.08466 | -20.60178 | 37181 ft | 596 kts | 288° |
| 2026-04-07 17:42 | 56.10463 | -20.74600 | 37172 ft | 596 kts | 288° |
| 2026-04-07 17:43 | 56.12432 | -20.88991 | 37161 ft | 589 kts | 288° |
| 2026-04-07 17:43 | 56.14331 | -21.03089 | 37151 ft | 573 kts | 288° |
| 2026-04-07 17:43 | 56.15239 | -21.09853 | 38153 ft | 554 kts | 282° |
| 2026-04-07 17:44 | 56.16091 | -21.16154 | 38093 ft | 494 kts | 281° |
| 2026-04-07 17:44 | 56.16870 | -21.21965 | 38427 ft | 467 kts | 281° |
| 2026-04-07 17:44 | 56.17612 | -21.27560 | 38078 ft | 455 kts | 281° |
| 2026-04-07 17:44 | 56.18328 | -21.32995 | 37979 ft | 440 kts | 281° |
| 2026-04-07 17:45 | 56.19028 | -21.38349 | 37955 ft | 441 kts | 281° |
| 2026-04-07 17:45 | 56.20409 | -21.48971 | 37540 ft | 438 kts | 281° |
| 2026-04-07 17:45 | 56.21100 | -21.54300 | 37235 ft | 440 kts | 281° |
| 2026-04-07 17:46 | 56.21794 | -21.59670 | 36938 ft | 442 kts | 281° |
| 2026-04-07 17:46 | 56.22487 | -21.65047 | 36633 ft | 441 kts | 281° |
| 2026-04-07 17:46 | 56.23175 | -21.70395 | 36311 ft | 436 kts | 281° |
| 2026-04-07 17:46 | 56.23853 | -21.75676 | 36018 ft | 431 kts | 281° |
| 2026-04-07 17:47 | 56.24518 | -21.80877 | 35928 ft | 423 kts | 281° |
| 2026-04-07 17:47 | 56.25830 | -21.91217 | 35892 ft | 428 kts | 280° |
| 2026-04-07 17:48 | 56.27157 | -22.01775 | 35850 ft | 436 kts | 280° |
| 2026-04-07 17:48 | 56.28491 | -22.12440 | 36060 ft | 436 kts | 280° |
| 2026-04-07 17:48 | 56.29156 | -22.17777 | 36235 ft | 436 kts | 280° |
| 2026-04-07 17:49 | 56.29814 | -22.23084 | 36499 ft | 433 kts | 280° |
| 2026-04-07 17:49 | 56.30468 | -22.28382 | 36647 ft | 434 kts | 280° |
| 2026-04-07 17:49 | 56.31113 | -22.33630 | 36705 ft | 435 kts | 279° |
| 2026-04-07 17:49 | 56.31775 | -22.39035 | 36841 ft | 436 kts | 279° |
| 2026-04-07 17:50 | 56.32417 | -22.44299 | 36935 ft | 437 kts | 279° |
| 2026-04-07 17:50 | 56.33070 | -22.49668 | 37044 ft | 438 kts | 279° |
| 2026-04-07 17:50 | 56.33721 | -22.55048 | 37094 ft | 440 kts | 279° |
| 2026-04-07 17:51 | 56.35026 | -22.65900 | 37127 ft | 445 kts | 279° |
| 2026-04-07 17:51 | 56.35666 | -22.71253 | 36306 ft | 448 kts | 281° |
| 2026-04-07 17:51 | 56.36327 | -22.76802 | 37136 ft | 453 kts | 280° |
| 2026-04-07 17:51 | 56.36979 | -22.82266 | 37746 ft | 443 kts | 279° |
| 2026-04-07 17:52 | 56.37625 | -22.87716 | 37770 ft | 445 kts | 279° |
| 2026-04-07 17:52 | 56.38269 | -22.93201 | 36895 ft | 448 kts | 281° |
| 2026-04-07 17:52 | 56.38916 | -22.98731 | 36867 ft | 454 kts | 282° |
| 2026-04-07 17:53 | 56.40229 | -23.10008 | 36844 ft | 464 kts | 282° |
| 2026-04-07 17:53 | 56.42218 | -23.27253 | 36839 ft | 476 kts | 282° |
| 2026-04-07 17:54 | 56.43561 | -23.39038 | 36842 ft | 482 kts | 281° |
| 2026-04-07 17:54 | 56.44911 | -23.50985 | 36839 ft | 487 kts | 281° |
| 2026-04-07 17:55 | 56.46262 | -23.63061 | 36833 ft | 491 kts | 281° |
| 2026-04-07 17:55 | 56.47605 | -23.75173 | 36819 ft | 491 kts | 281° |
| 2026-04-07 17:56 | 56.48932 | -23.87264 | 36816 ft | 489 kts | 281° |
| 2026-04-07 17:56 | 56.50232 | -23.99224 | 36794 ft | 491 kts | 280° |
| 2026-04-07 17:57 | 56.51549 | -24.11460 | 36833 ft | 499 kts | 280° |
| 2026-04-07 17:57 | 56.52863 | -24.23775 | 36843 ft | 506 kts | 279° |
| 2026-04-07 17:58 | 56.54169 | -24.36171 | 36813 ft | 488 kts | 278° |
| 2026-04-07 17:58 | 56.54580 | -24.40023 | 36812 ft | 476 kts | 279° |
| 2026-04-07 17:58 | 56.55197 | -24.45814 | 36808 ft | 461 kts | 278° |
| 2026-04-07 17:59 | 56.56375 | -24.57240 | 36800 ft | 465 kts | 279° |
| 2026-04-07 17:59 | 56.57566 | -24.68909 | 36841 ft | 475 kts | 279° |
| 2026-04-07 18:00 | 56.58768 | -24.80739 | 36847 ft | 485 kts | 279° |
| 2026-04-07 18:00 | 56.59992 | -24.92888 | 36845 ft | 494 kts | 279° |
| 2026-04-07 18:01 | 56.61226 | -25.05272 | 36842 ft | 502 kts | 279° |
| 2026-04-07 18:01 | 56.62467 | -25.17846 | 36840 ft | 509 kts | 279° |
| 2026-04-07 18:02 | 56.63707 | -25.30558 | 36838 ft | 513 kts | 279° |
| 2026-04-07 18:02 | 56.64931 | -25.43247 | 36813 ft | 505 kts | 279° |
| 2026-04-07 18:03 | 56.66125 | -25.55759 | 36829 ft | 501 kts | 279° |
| 2026-04-07 18:03 | 56.67303 | -25.68251 | 36830 ft | 501 kts | 278° |
| 2026-04-07 18:04 | 56.68466 | -25.80728 | 36828 ft | 501 kts | 278° |
| 2026-04-07 18:04 | 56.69618 | -25.93228 | 36826 ft | 501 kts | 278° |
| 2026-04-07 18:05 | 56.70753 | -26.05683 | 36826 ft | 502 kts | 278° |
| 2026-04-07 18:05 | 56.71885 | -26.18250 | 36829 ft | 504 kts | 278° |
| 2026-04-07 18:06 | 56.73005 | -26.30838 | 36833 ft | 505 kts | 278° |
| 2026-04-07 18:06 | 56.74117 | -26.43475 | 36828 ft | 505 kts | 278° |
| 2026-04-07 18:07 | 56.75217 | -26.56137 | 36825 ft | 506 kts | 278° |
| 2026-04-07 18:07 | 56.76304 | -26.68805 | 36831 ft | 506 kts | 278° |
| 2026-04-07 18:08 | 56.77379 | -26.81490 | 36830 ft | 506 kts | 277° |
| 2026-04-07 18:08 | 56.78440 | -26.94168 | 36824 ft | 506 kts | 277° |
| 2026-04-07 18:09 | 56.79488 | -27.06842 | 36829 ft | 505 kts | 277° |
| 2026-04-07 18:09 | 56.80521 | -27.19513 | 36826 ft | 505 kts | 277° |
| 2026-04-07 18:10 | 56.81534 | -27.32093 | 36824 ft | 504 kts | 277° |
| 2026-04-07 18:10 | 56.82541 | -27.44762 | 36826 ft | 504 kts | 277° |
| 2026-04-07 18:11 | 56.83534 | -27.57418 | 36827 ft | 504 kts | 277° |
| 2026-04-07 18:11 | 56.84515 | -27.70101 | 36828 ft | 504 kts | 277° |
| 2026-04-07 18:12 | 56.85482 | -27.82779 | 36826 ft | 504 kts | 277° |
| 2026-04-07 18:12 | 56.86437 | -27.95460 | 36828 ft | 504 kts | 277° |
| 2026-04-07 18:13 | 56.87378 | -28.08148 | 36827 ft | 504 kts | 276° |
| 2026-04-07 18:13 | 56.88308 | -28.20853 | 36828 ft | 504 kts | 276° |
| 2026-04-07 18:14 | 56.89223 | -28.33550 | 36829 ft | 504 kts | 276° |
| 2026-04-07 18:14 | 56.90127 | -28.46268 | 36830 ft | 504 kts | 276° |
| 2026-04-07 18:15 | 56.91012 | -28.58914 | 36830 ft | 504 kts | 276° |
| 2026-04-07 18:15 | 56.91890 | -28.71645 | 36830 ft | 504 kts | 276° |
| 2026-04-07 18:16 | 56.92756 | -28.84392 | 36831 ft | 504 kts | 276° |
| 2026-04-07 18:16 | 56.93608 | -28.97134 | 36832 ft | 504 kts | 276° |
| 2026-04-07 18:17 | 56.94447 | -29.09882 | 36829 ft | 504 kts | 276° |
| 2026-04-07 18:17 | 56.95274 | -29.22655 | 36827 ft | 504 kts | 275° |
| 2026-04-07 18:18 | 56.96087 | -29.35411 | 36828 ft | 504 kts | 275° |
| 2026-04-07 18:18 | 56.96887 | -29.48174 | 36830 ft | 504 kts | 275° |
| 2026-04-07 18:19 | 56.97675 | -29.60955 | 36824 ft | 504 kts | 275° |
| 2026-04-07 18:19 | 56.98445 | -29.73661 | 36832 ft | 504 kts | 275° |
| 2026-04-07 18:20 | 56.99209 | -29.86448 | 36831 ft | 504 kts | 275° |
| 2026-04-07 18:20 | 56.99841 | -29.99242 | 36812 ft | 503 kts | 270° |
| 2026-04-07 18:21 | 56.99401 | -30.11992 | 36839 ft | 500 kts | 262° |
| 2026-04-07 18:21 | 56.98581 | -30.24667 | 36828 ft | 501 kts | 261° |
| 2026-04-07 18:22 | 56.97772 | -30.37349 | 36829 ft | 501 kts | 262° |
| 2026-04-07 18:22 | 56.96982 | -30.50039 | 36829 ft | 501 kts | 262° |
| 2026-04-07 18:23 | 56.96190 | -30.62740 | 36826 ft | 501 kts | 262° |
| 2026-04-07 18:23 | 56.95386 | -30.75438 | 36826 ft | 502 kts | 261° |
| 2026-04-07 18:24 | 56.94566 | -30.88138 | 36831 ft | 502 kts | 261° |
| 2026-04-07 18:24 | 56.93734 | -31.00817 | 36828 ft | 502 kts | 261° |
| 2026-04-07 18:25 | 56.92888 | -31.13494 | 36830 ft | 502 kts | 261° |
| 2026-04-07 18:25 | 56.92029 | -31.26175 | 36828 ft | 502 kts | 261° |
| 2026-04-07 18:26 | 56.91164 | -31.38761 | 36829 ft | 501 kts | 261° |
| 2026-04-07 18:26 | 56.90281 | -31.51409 | 36830 ft | 501 kts | 261° |
| 2026-04-07 18:27 | 56.89384 | -31.64061 | 36830 ft | 501 kts | 261° |
| 2026-04-07 18:27 | 56.88476 | -31.76696 | 36826 ft | 501 kts | 261° |
| 2026-04-07 18:28 | 56.87555 | -31.89324 | 36829 ft | 501 kts | 261° |
| 2026-04-07 18:28 | 56.86621 | -32.01945 | 36831 ft | 501 kts | 260° |
| 2026-04-07 18:29 | 56.85674 | -32.14557 | 36832 ft | 501 kts | 260° |
| 2026-04-07 18:29 | 56.84715 | -32.27162 | 36826 ft | 501 kts | 260° |
| 2026-04-07 18:30 | 56.83744 | -32.39762 | 36831 ft | 501 kts | 260° |
| 2026-04-07 18:30 | 56.82758 | -32.52365 | 36824 ft | 501 kts | 260° |
| 2026-04-07 18:31 | 56.81761 | -32.64950 | 36828 ft | 501 kts | 260° |
| 2026-04-07 18:31 | 56.80751 | -32.77531 | 36824 ft | 501 kts | 259° |
| 2026-04-07 18:32 | 56.79735 | -32.90030 | 36824 ft | 501 kts | 259° |
| 2026-04-07 18:32 | 56.78701 | -33.02587 | 36830 ft | 501 kts | 259° |
| 2026-04-07 18:33 | 56.77652 | -33.15157 | 36828 ft | 501 kts | 259° |
| 2026-04-07 18:33 | 56.76592 | -33.27710 | 36830 ft | 501 kts | 259° |
| 2026-04-07 18:34 | 56.75517 | -33.40277 | 36828 ft | 501 kts | 259° |
| 2026-04-07 18:34 | 56.74432 | -33.52806 | 36832 ft | 501 kts | 259° |
| 2026-04-07 18:35 | 56.73334 | -33.65342 | 36832 ft | 501 kts | 259° |
| 2026-04-07 18:35 | 56.72224 | -33.77857 | 36832 ft | 501 kts | 259° |
| 2026-04-07 18:36 | 56.71102 | -33.90366 | 36831 ft | 501 kts | 259° |
| 2026-04-07 18:36 | 56.69965 | -34.02881 | 36830 ft | 501 kts | 258° |
| 2026-04-07 18:37 | 56.68824 | -34.15302 | 36826 ft | 501 kts | 258° |
| 2026-04-07 18:37 | 56.67664 | -34.27791 | 36830 ft | 501 kts | 258° |
| 2026-04-07 18:38 | 56.66492 | -34.40267 | 36830 ft | 501 kts | 258° |
| 2026-04-07 18:38 | 56.65308 | -34.52726 | 36828 ft | 501 kts | 258° |
| 2026-04-07 18:39 | 56.64111 | -34.65189 | 36824 ft | 500 kts | 258° |
| 2026-04-07 18:39 | 56.62901 | -34.77645 | 36828 ft | 500 kts | 258° |
| 2026-04-07 18:40 | 56.61679 | -34.90088 | 36828 ft | 500 kts | 258° |
| 2026-04-07 18:40 | 56.60445 | -35.02515 | 36827 ft | 500 kts | 258° |
| 2026-04-07 18:41 | 56.59199 | -35.14941 | 36826 ft | 500 kts | 257° |
| 2026-04-07 18:41 | 56.57939 | -35.27366 | 36829 ft | 500 kts | 257° |
| 2026-04-07 18:42 | 56.56667 | -35.39778 | 36828 ft | 500 kts | 257° |
| 2026-04-07 18:42 | 56.55384 | -35.52173 | 36829 ft | 500 kts | 257° |
| 2026-04-07 18:43 | 56.54088 | -35.64571 | 36832 ft | 500 kts | 257° |
| 2026-04-07 18:43 | 56.52779 | -35.76958 | 36824 ft | 500 kts | 257° |
| 2026-04-07 18:44 | 56.51457 | -35.89344 | 36828 ft | 500 kts | 257° |
| 2026-04-07 18:44 | 56.50124 | -36.01709 | 36832 ft | 500 kts | 257° |
| 2026-04-07 18:45 | 56.48788 | -36.13989 | 36831 ft | 500 kts | 257° |
| 2026-04-07 18:45 | 56.47432 | -36.26327 | 36831 ft | 500 kts | 257° |
| 2026-04-07 18:46 | 56.46062 | -36.38667 | 36826 ft | 500 kts | 256° |
| 2026-04-07 18:46 | 56.44914 | -36.48917 | 36831 ft | 500 kts | 256° |
| 2026-04-07 18:47 | 56.43523 | -36.61234 | 36825 ft | 500 kts | 256° |
| 2026-04-07 18:47 | 56.42119 | -36.73545 | 36829 ft | 500 kts | 256° |
| 2026-04-07 18:48 | 56.40704 | -36.85845 | 36830 ft | 500 kts | 256° |
| 2026-04-07 18:48 | 56.39275 | -36.98142 | 36827 ft | 500 kts | 256° |
| 2026-04-07 18:49 | 56.37836 | -37.10416 | 36823 ft | 500 kts | 256° |
| 2026-04-07 18:49 | 56.36384 | -37.22682 | 36831 ft | 500 kts | 256° |
| 2026-04-07 18:50 | 56.34918 | -37.34959 | 36818 ft | 500 kts | 256° |
| 2026-04-07 18:50 | 56.33452 | -37.47128 | 36830 ft | 500 kts | 256° |
| 2026-04-07 18:51 | 56.31965 | -37.59361 | 36834 ft | 500 kts | 255° |
| 2026-04-07 18:51 | 56.30465 | -37.71592 | 36819 ft | 500 kts | 255° |
| 2026-04-07 18:52 | 56.28955 | -37.83802 | 36832 ft | 500 kts | 255° |
| 2026-04-07 18:52 | 56.27431 | -37.96012 | 36832 ft | 500 kts | 255° |
| 2026-04-07 18:53 | 56.25895 | -38.08210 | 36830 ft | 500 kts | 255° |
| 2026-04-07 18:53 | 56.24348 | -38.20393 | 36831 ft | 500 kts | 255° |
| 2026-04-07 18:54 | 56.22787 | -38.32584 | 36825 ft | 500 kts | 255° |
| 2026-04-07 18:54 | 56.21217 | -38.44745 | 36826 ft | 500 kts | 255° |
| 2026-04-07 18:55 | 56.19633 | -38.56904 | 36833 ft | 500 kts | 255° |
| 2026-04-07 18:55 | 56.18038 | -38.69047 | 36821 ft | 500 kts | 255° |
| 2026-04-07 18:56 | 56.16432 | -38.81177 | 36832 ft | 500 kts | 254° |
| 2026-04-07 18:56 | 56.14824 | -38.93228 | 36833 ft | 500 kts | 254° |
| 2026-04-07 18:57 | 56.13194 | -39.05340 | 36817 ft | 500 kts | 254° |
| 2026-04-07 18:57 | 56.11552 | -39.17438 | 36833 ft | 500 kts | 254° |
| 2026-04-07 18:58 | 56.09897 | -39.29540 | 36829 ft | 500 kts | 254° |
| 2026-04-07 18:58 | 56.08232 | -39.41619 | 36818 ft | 500 kts | 254° |
| 2026-04-07 18:59 | 56.06555 | -39.53687 | 36832 ft | 499 kts | 254° |
| 2026-04-07 18:59 | 56.04866 | -39.65749 | 36828 ft | 499 kts | 253° |
| 2026-04-07 19:00 | 56.03167 | -39.77790 | 36828 ft | 499 kts | 253° |
| 2026-04-07 19:00 | 56.01457 | -39.89833 | 36832 ft | 499 kts | 253° |
| 2026-04-07 19:01 | 55.99853 | -40.01913 | 36814 ft | 501 kts | 259° |
| 2026-04-07 19:02 | 55.98747 | -40.20415 | 36824 ft | 502 kts | 263° |
| 2026-04-07 19:02 | 55.98053 | -40.32817 | 36830 ft | 502 kts | 262° |
| 2026-04-07 19:03 | 55.97317 | -40.45206 | 36830 ft | 502 kts | 262° |
| 2026-04-07 19:03 | 55.96553 | -40.57586 | 36831 ft | 502 kts | 262° |
| 2026-04-07 19:04 | 55.95774 | -40.69965 | 36832 ft | 502 kts | 262° |
| 2026-04-07 19:04 | 55.94983 | -40.82346 | 36831 ft | 502 kts | 262° |
| 2026-04-07 19:05 | 55.94182 | -40.94717 | 36829 ft | 502 kts | 262° |
| 2026-04-07 19:05 | 55.93369 | -41.07085 | 36832 ft | 502 kts | 261° |
| 2026-04-07 19:06 | 55.92543 | -41.19441 | 36832 ft | 502 kts | 261° |
| 2026-04-07 19:06 | 55.91705 | -41.31799 | 36829 ft | 502 kts | 261° |
| 2026-04-07 19:07 | 55.90854 | -41.44142 | 36829 ft | 502 kts | 261° |
| 2026-04-07 19:07 | 55.89998 | -41.56388 | 36832 ft | 502 kts | 261° |
| 2026-04-07 19:08 | 55.89123 | -41.68726 | 36831 ft | 501 kts | 261° |
| 2026-04-07 19:08 | 55.88236 | -41.81055 | 36824 ft | 501 kts | 261° |
| 2026-04-07 19:09 | 55.87337 | -41.93375 | 36831 ft | 501 kts | 261° |
| 2026-04-07 19:09 | 55.86425 | -42.05685 | 36829 ft | 501 kts | 261° |
| 2026-04-07 19:10 | 55.85502 | -42.17982 | 36824 ft | 501 kts | 260° |
| 2026-04-07 19:10 | 55.84566 | -42.30285 | 36825 ft | 501 kts | 260° |
| 2026-04-07 19:11 | 55.83618 | -42.42574 | 36831 ft | 501 kts | 260° |
| 2026-04-07 19:11 | 55.82664 | -42.54782 | 36827 ft | 501 kts | 260° |
| 2026-04-07 19:12 | 55.81691 | -42.67069 | 36828 ft | 501 kts | 260° |
| 2026-04-07 19:12 | 55.80707 | -42.79339 | 36829 ft | 501 kts | 260° |
| 2026-04-07 19:13 | 55.79710 | -42.91608 | 36826 ft | 501 kts | 260° |
| 2026-04-07 19:13 | 55.78700 | -43.03869 | 36830 ft | 501 kts | 259° |
| 2026-04-07 19:14 | 55.77679 | -43.16127 | 36831 ft | 501 kts | 259° |
| 2026-04-07 19:14 | 55.76645 | -43.28374 | 36824 ft | 501 kts | 259° |
| 2026-04-07 19:15 | 55.75600 | -43.40617 | 36830 ft | 501 kts | 259° |
| 2026-04-07 19:15 | 55.74543 | -43.52841 | 36829 ft | 501 kts | 259° |
| 2026-04-07 19:16 | 55.73472 | -43.65079 | 36828 ft | 501 kts | 259° |
| 2026-04-07 19:16 | 55.72391 | -43.77286 | 36831 ft | 501 kts | 259° |
| 2026-04-07 19:17 | 55.71298 | -43.89495 | 36832 ft | 501 kts | 259° |
| 2026-04-07 19:17 | 55.70200 | -44.01610 | 36825 ft | 501 kts | 259° |
| 2026-04-07 19:18 | 55.69082 | -44.13807 | 36833 ft | 501 kts | 259° |
| 2026-04-07 19:18 | 55.67952 | -44.25998 | 36825 ft | 501 kts | 258° |
| 2026-04-07 19:19 | 55.66810 | -44.38170 | 36831 ft | 501 kts | 258° |
| 2026-04-07 19:19 | 55.65657 | -44.50342 | 36830 ft | 501 kts | 258° |
| 2026-04-07 19:20 | 55.64492 | -44.62500 | 36828 ft | 501 kts | 258° |
| 2026-04-07 19:20 | 55.63314 | -44.74656 | 36831 ft | 501 kts | 258° |
| 2026-04-07 19:21 | 55.62123 | -44.86812 | 36829 ft | 501 kts | 258° |
| 2026-04-07 19:21 | 55.60922 | -44.98953 | 36828 ft | 501 kts | 258° |
| 2026-04-07 19:22 | 55.59709 | -45.11076 | 36832 ft | 501 kts | 258° |
| 2026-04-07 19:22 | 55.58483 | -45.23201 | 36829 ft | 501 kts | 258° |
| 2026-04-07 19:23 | 55.57246 | -45.35321 | 36830 ft | 501 kts | 258° |
| 2026-04-07 19:23 | 55.56004 | -45.47352 | 36826 ft | 501 kts | 257° |
| 2026-04-07 19:24 | 55.54743 | -45.59451 | 36831 ft | 501 kts | 257° |
| 2026-04-07 19:24 | 55.53469 | -45.71552 | 36824 ft | 501 kts | 257° |
| 2026-04-07 19:25 | 55.52186 | -45.83625 | 36828 ft | 501 kts | 257° |
| 2026-04-07 19:25 | 55.50889 | -45.95701 | 36824 ft | 501 kts | 257° |
| 2026-04-07 19:26 | 55.49580 | -46.07772 | 36824 ft | 501 kts | 257° |
| 2026-04-07 19:26 | 55.48259 | -46.19839 | 36829 ft | 501 kts | 257° |
| 2026-04-07 19:27 | 55.46928 | -46.31877 | 36828 ft | 501 kts | 257° |
| 2026-04-07 19:27 | 55.45584 | -46.43917 | 36831 ft | 501 kts | 257° |
| 2026-04-07 19:28 | 55.44229 | -46.55949 | 36832 ft | 501 kts | 257° |
| 2026-04-07 19:28 | 55.42862 | -46.67968 | 36833 ft | 501 kts | 256° |
| 2026-04-07 19:29 | 55.41492 | -46.79900 | 36830 ft | 501 kts | 256° |
| 2026-04-07 19:29 | 55.40093 | -46.91983 | 36829 ft | 500 kts | 256° |
| 2026-04-07 19:30 | 55.38700 | -47.03901 | 36831 ft | 501 kts | 256° |
| 2026-04-07 19:30 | 55.37286 | -47.15888 | 36830 ft | 500 kts | 256° |
| 2026-04-07 19:31 | 55.35860 | -47.27863 | 36828 ft | 500 kts | 256° |
| 2026-04-07 19:31 | 55.34424 | -47.39824 | 36830 ft | 500 kts | 256° |
| 2026-04-07 19:32 | 55.32976 | -47.51781 | 36830 ft | 500 kts | 256° |
| 2026-04-07 19:32 | 55.31514 | -47.63737 | 36827 ft | 500 kts | 256° |
| 2026-04-07 19:33 | 55.30041 | -47.75686 | 36828 ft | 500 kts | 256° |
| 2026-04-07 19:33 | 55.28558 | -47.87615 | 36824 ft | 500 kts | 256° |
| 2026-04-07 19:34 | 55.27063 | -47.99537 | 36829 ft | 500 kts | 255° |
| 2026-04-07 19:34 | 55.25558 | -48.11439 | 36816 ft | 500 kts | 255° |
| 2026-04-07 19:35 | 55.24050 | -48.23256 | 36830 ft | 500 kts | 255° |
| 2026-04-07 19:35 | 55.22521 | -48.35148 | 36832 ft | 500 kts | 255° |
| 2026-04-07 19:36 | 55.20981 | -48.47024 | 36827 ft | 500 kts | 255° |
| 2026-04-07 19:36 | 55.19428 | -48.58899 | 36829 ft | 500 kts | 255° |
| 2026-04-07 19:37 | 55.17863 | -48.70766 | 36817 ft | 500 kts | 255° |
| 2026-04-07 19:37 | 55.16553 | -48.80632 | 36828 ft | 500 kts | 255° |
| 2026-04-07 19:38 | 55.14969 | -48.92475 | 36827 ft | 500 kts | 255° |
| 2026-04-07 19:38 | 55.13372 | -49.04317 | 36820 ft | 500 kts | 255° |
| 2026-04-07 19:39 | 55.11764 | -49.16143 | 36833 ft | 500 kts | 254° |
| 2026-04-07 19:39 | 55.10144 | -49.27964 | 36833 ft | 500 kts | 254° |
| 2026-04-07 19:40 | 55.08514 | -49.39768 | 36818 ft | 500 kts | 254° |
| 2026-04-07 19:40 | 55.06873 | -49.51561 | 36833 ft | 500 kts | 254° |
| 2026-04-07 19:41 | 55.05219 | -49.63349 | 36829 ft | 500 kts | 254° |
| 2026-04-07 19:41 | 55.03556 | -49.75121 | 36816 ft | 500 kts | 254° |
| 2026-04-07 19:42 | 55.01893 | -49.86808 | 36832 ft | 500 kts | 254° |
| 2026-04-07 19:42 | 55.00187 | -49.98547 | 36832 ft | 499 kts | 251° |
| 2026-04-07 19:43 | 54.97742 | -50.09797 | 36841 ft | 496 kts | 244° |
| 2026-04-07 19:43 | 54.95007 | -50.20825 | 36820 ft | 496 kts | 244° |
| 2026-04-07 19:44 | 54.92280 | -50.31861 | 36831 ft | 497 kts | 244° |
| 2026-04-07 19:44 | 54.89569 | -50.42909 | 36831 ft | 497 kts | 244° |
| 2026-04-07 19:45 | 54.86857 | -50.53952 | 36816 ft | 497 kts | 244° |
| 2026-04-07 19:45 | 54.84134 | -50.64991 | 36831 ft | 497 kts | 244° |
| 2026-04-07 19:46 | 54.81402 | -50.76006 | 36834 ft | 497 kts | 244° |
| 2026-04-07 19:46 | 54.78659 | -50.87002 | 36817 ft | 497 kts | 244° |
| 2026-04-07 19:47 | 54.75907 | -50.97979 | 36830 ft | 497 kts | 244° |
| 2026-04-07 19:47 | 54.73143 | -51.08948 | 36834 ft | 497 kts | 244° |
| 2026-04-07 19:48 | 54.70387 | -51.19835 | 36834 ft | 497 kts | 244° |
| 2026-04-07 19:48 | 54.67604 | -51.30775 | 36830 ft | 497 kts | 244° |
| 2026-04-07 19:49 | 54.64810 | -51.41705 | 36834 ft | 497 kts | 244° |
| 2026-04-07 19:49 | 54.62010 | -51.52602 | 36833 ft | 497 kts | 243° |
| 2026-04-07 19:50 | 54.59198 | -51.63494 | 36817 ft | 497 kts | 243° |
| 2026-04-07 19:50 | 54.56379 | -51.74361 | 36832 ft | 497 kts | 243° |
| 2026-04-07 19:51 | 54.53549 | -51.85218 | 36833 ft | 497 kts | 243° |
| 2026-04-07 19:51 | 54.50709 | -51.96059 | 36817 ft | 497 kts | 243° |
| 2026-04-07 19:52 | 54.47863 | -52.06873 | 36832 ft | 496 kts | 243° |
| 2026-04-07 19:52 | 54.45006 | -52.17677 | 36834 ft | 496 kts | 243° |
| 2026-04-07 19:53 | 54.42138 | -52.28470 | 36815 ft | 496 kts | 243° |
| 2026-04-07 19:53 | 54.39263 | -52.39238 | 36829 ft | 496 kts | 243° |
| 2026-04-07 19:54 | 54.36389 | -52.49951 | 36834 ft | 496 kts | 243° |
| 2026-04-07 19:54 | 54.33493 | -52.60699 | 36817 ft | 496 kts | 243° |
| 2026-04-07 19:55 | 54.30590 | -52.71420 | 36827 ft | 496 kts | 242° |
| 2026-04-07 19:55 | 54.27674 | -52.82138 | 36836 ft | 496 kts | 242° |
| 2026-04-07 19:56 | 54.24752 | -52.92830 | 36828 ft | 496 kts | 242° |
| 2026-04-07 19:56 | 54.21815 | -53.03524 | 36831 ft | 496 kts | 242° |
| 2026-04-07 19:57 | 54.18872 | -53.14191 | 36833 ft | 496 kts | 242° |
| 2026-04-07 19:57 | 54.15920 | -53.24843 | 36832 ft | 496 kts | 242° |
| 2026-04-07 19:58 | 54.12963 | -53.35464 | 36816 ft | 496 kts | 242° |
| 2026-04-07 19:58 | 54.10011 | -53.46019 | 36833 ft | 496 kts | 242° |
| 2026-04-07 19:59 | 54.07012 | -53.56693 | 36832 ft | 496 kts | 242° |
| 2026-04-07 19:59 | 54.04024 | -53.67278 | 36818 ft | 496 kts | 242° |
| 2026-04-07 20:00 | 54.01045 | -53.77785 | 36835 ft | 496 kts | 242° |
| 2026-04-07 20:00 | 53.96530 | -53.93617 | 36833 ft | 496 kts | 241° |
| 2026-04-07 20:01 | 53.93512 | -54.04142 | 36830 ft | 496 kts | 241° |
| 2026-04-07 20:01 | 53.90482 | -54.14659 | 36816 ft | 496 kts | 241° |
| 2026-04-07 20:02 | 53.87442 | -54.25166 | 36834 ft | 496 kts | 241° |
| 2026-04-07 20:02 | 53.84396 | -54.35648 | 36836 ft | 496 kts | 241° |
| 2026-04-07 20:03 | 53.81340 | -54.46115 | 36817 ft | 496 kts | 241° |
| 2026-04-07 20:03 | 53.78276 | -54.56564 | 36833 ft | 496 kts | 241° |
| 2026-04-07 20:04 | 53.75203 | -54.66999 | 36832 ft | 496 kts | 241° |
| 2026-04-07 20:04 | 53.72119 | -54.77424 | 36816 ft | 496 kts | 241° |
| 2026-04-07 20:05 | 53.69049 | -54.87756 | 36832 ft | 496 kts | 240° |
| 2026-04-07 20:05 | 53.65948 | -54.98148 | 36831 ft | 496 kts | 240° |
| 2026-04-07 20:06 | 53.62836 | -55.08527 | 36833 ft | 496 kts | 240° |
| 2026-04-07 20:06 | 53.59719 | -55.18884 | 36829 ft | 496 kts | 240° |
| 2026-04-07 20:07 | 53.56592 | -55.29225 | 36832 ft | 496 kts | 240° |
| 2026-04-07 20:07 | 53.53457 | -55.39548 | 36833 ft | 496 kts | 240° |
| 2026-04-07 20:08 | 53.50313 | -55.49860 | 36817 ft | 496 kts | 240° |
| 2026-04-07 20:08 | 53.47161 | -55.60150 | 36830 ft | 496 kts | 240° |
| 2026-04-07 20:09 | 53.44000 | -55.70427 | 36834 ft | 496 kts | 240° |
| 2026-04-07 20:09 | 53.40831 | -55.80686 | 36815 ft | 496 kts | 240° |
| 2026-04-07 20:10 | 53.37652 | -55.90932 | 36831 ft | 496 kts | 240° |
| 2026-04-07 20:10 | 53.34462 | -56.01170 | 36834 ft | 496 kts | 240° |
| 2026-04-07 20:11 | 53.31266 | -56.11388 | 36831 ft | 496 kts | 239° |
| 2026-04-07 20:11 | 53.28056 | -56.21604 | 36834 ft | 496 kts | 239° |
| 2026-04-07 20:12 | 53.24834 | -56.31815 | 36829 ft | 496 kts | 239° |
| 2026-04-07 20:12 | 53.21606 | -56.42005 | 36813 ft | 496 kts | 239° |
| 2026-04-07 20:13 | 53.18391 | -56.52110 | 36836 ft | 496 kts | 239° |
| 2026-04-07 20:13 | 53.15143 | -56.62280 | 36835 ft | 497 kts | 239° |
| 2026-04-07 20:14 | 53.11890 | -56.72426 | 36816 ft | 497 kts | 239° |
| 2026-04-07 20:14 | 53.08408 | -56.82174 | 39230 ft | 492 kts | 233° |
| 2026-04-07 20:15 | 53.06412 | -56.86591 | 39779 ft | 469 kts | 233° |
| 2026-04-07 20:15 | 53.04500 | -56.90827 | 39933 ft | 447 kts | 233° |
| 2026-04-07 20:15 | 53.02940 | -56.94301 | 39851 ft | 434 kts | 233° |
| 2026-04-07 20:15 | 53.01156 | -56.98291 | 39896 ft | 430 kts | 233° |
| 2026-04-07 20:16 | 52.97607 | -57.06254 | 39899 ft | 427 kts | 234° |
| 2026-04-07 20:16 | 52.94088 | -57.14145 | 39893 ft | 424 kts | 234° |
| 2026-04-07 20:17 | 52.90589 | -57.21971 | 39904 ft | 421 kts | 234° |
| 2026-04-07 20:17 | 52.87104 | -57.29741 | 39906 ft | 420 kts | 234° |
| 2026-04-07 20:18 | 52.83619 | -57.37486 | 39921 ft | 420 kts | 233° |
| 2026-04-07 20:18 | 52.80143 | -57.45186 | 39919 ft | 421 kts | 233° |
| 2026-04-07 20:19 | 52.76632 | -57.52941 | 39924 ft | 422 kts | 233° |
| 2026-04-07 20:19 | 52.73104 | -57.60711 | 39928 ft | 424 kts | 233° |
| 2026-04-07 20:20 | 52.69558 | -57.68493 | 39936 ft | 425 kts | 233° |
| 2026-04-07 20:20 | 52.65998 | -57.76285 | 39933 ft | 426 kts | 233° |
| 2026-04-07 20:21 | 52.62427 | -57.84076 | 39933 ft | 426 kts | 233° |
| 2026-04-07 20:21 | 52.58853 | -57.91849 | 39947 ft | 426 kts | 233° |
| 2026-04-07 20:22 | 52.55282 | -57.99592 | 39950 ft | 425 kts | 233° |
| 2026-04-07 20:22 | 52.51712 | -58.07310 | 39950 ft | 424 kts | 233° |
| 2026-04-07 20:23 | 52.48144 | -58.15000 | 39959 ft | 423 kts | 233° |
| 2026-04-07 20:23 | 52.45184 | -58.21362 | 39956 ft | 422 kts | 233° |
| 2026-04-07 20:24 | 52.41626 | -58.28989 | 39965 ft | 421 kts | 233° |
| 2026-04-07 20:24 | 52.38068 | -58.36592 | 39972 ft | 420 kts | 233° |
| 2026-04-07 20:25 | 52.34515 | -58.44164 | 39974 ft | 419 kts | 233° |
| 2026-04-07 20:25 | 52.30960 | -58.51716 | 39983 ft | 419 kts | 233° |
| 2026-04-07 20:26 | 52.27397 | -58.59261 | 39987 ft | 419 kts | 233° |
| 2026-04-07 20:26 | 52.23835 | -58.66786 | 39994 ft | 419 kts | 233° |
| 2026-04-07 20:27 | 52.20262 | -58.74309 | 39992 ft | 419 kts | 233° |
| 2026-04-07 20:27 | 52.16706 | -58.81775 | 40001 ft | 420 kts | 233° |
| 2026-04-07 20:28 | 52.13119 | -58.89285 | 40004 ft | 420 kts | 233° |
| 2026-04-07 20:28 | 52.09522 | -58.96793 | 40002 ft | 420 kts | 233° |
| 2026-04-07 20:29 | 52.05922 | -59.04284 | 40006 ft | 420 kts | 233° |
| 2026-04-07 20:29 | 52.02319 | -59.11761 | 40009 ft | 420 kts | 233° |
| 2026-04-07 20:30 | 51.98715 | -59.19217 | 40009 ft | 420 kts | 233° |
| 2026-04-07 20:30 | 51.95106 | -59.26661 | 40022 ft | 420 kts | 233° |
| 2026-04-07 20:31 | 51.91491 | -59.34098 | 40015 ft | 420 kts | 233° |
| 2026-04-07 20:31 | 51.87875 | -59.41513 | 40015 ft | 420 kts | 233° |
| 2026-04-07 20:32 | 51.84255 | -59.48917 | 40012 ft | 420 kts | 232° |
| 2026-04-07 20:32 | 51.80626 | -59.56317 | 40014 ft | 420 kts | 232° |
| 2026-04-07 20:33 | 51.76998 | -59.63695 | 40016 ft | 419 kts | 232° |
| 2026-04-07 20:33 | 51.73368 | -59.71054 | 40018 ft | 419 kts | 232° |
| 2026-04-07 20:34 | 51.69736 | -59.78397 | 40019 ft | 418 kts | 232° |
| 2026-04-07 20:34 | 51.66100 | -59.85725 | 40016 ft | 418 kts | 232° |
| 2026-04-07 20:35 | 51.62463 | -59.93037 | 40025 ft | 418 kts | 232° |
| 2026-04-07 20:35 | 51.58822 | -60.00334 | 40015 ft | 418 kts | 232° |
| 2026-04-07 20:36 | 51.55182 | -60.07610 | 40020 ft | 417 kts | 232° |
| 2026-04-07 20:36 | 51.51541 | -60.14865 | 40023 ft | 417 kts | 232° |
| 2026-04-07 20:37 | 51.47900 | -60.22101 | 40035 ft | 417 kts | 232° |
| 2026-04-07 20:37 | 51.44255 | -60.29326 | 40034 ft | 416 kts | 232° |
| 2026-04-07 20:38 | 51.40608 | -60.36534 | 40037 ft | 416 kts | 232° |
| 2026-04-07 20:38 | 51.36961 | -60.43721 | 40047 ft | 416 kts | 232° |
| 2026-04-07 20:39 | 51.33315 | -60.50888 | 40059 ft | 415 kts | 232° |
| 2026-04-07 20:39 | 51.29685 | -60.58000 | 40061 ft | 415 kts | 232° |
| 2026-04-07 20:40 | 51.26031 | -60.65142 | 40093 ft | 416 kts | 232° |
| 2026-04-07 20:40 | 51.22366 | -60.72286 | 40062 ft | 416 kts | 232° |
| 2026-04-07 20:41 | 51.18693 | -60.79424 | 40077 ft | 416 kts | 232° |
| 2026-04-07 20:41 | 51.15020 | -60.86542 | 40075 ft | 416 kts | 232° |
| 2026-04-07 20:42 | 51.11343 | -60.93649 | 40076 ft | 415 kts | 232° |
| 2026-04-07 20:42 | 51.07664 | -61.00740 | 40081 ft | 415 kts | 232° |
| 2026-04-07 20:43 | 51.03985 | -61.07811 | 40074 ft | 415 kts | 232° |
| 2026-04-07 20:43 | 51.02185 | -61.11266 | 37736 ft | 415 kts | 231° |
| 2026-04-07 20:43 | 51.00350 | -61.14795 | 37933 ft | 414 kts | 226° |
| 2026-04-07 20:44 | 50.98511 | -61.18320 | 38052 ft | 415 kts | 225° |
| 2026-04-07 20:44 | 50.96655 | -61.21851 | 37962 ft | 421 kts | 229° |
| 2026-04-07 20:44 | 50.94763 | -61.25453 | 37442 ft | 440 kts | 230° |
| 2026-04-07 20:44 | 50.92768 | -61.29298 | 37248 ft | 448 kts | 230° |
| 2026-04-07 20:45 | 50.90816 | -61.33065 | 37445 ft | 448 kts | 230° |
| 2026-04-07 20:45 | 50.88806 | -61.36936 | 37216 ft | 458 kts | 230° |
| 2026-04-07 20:45 | 50.84656 | -61.44816 | 37465 ft | 463 kts | 229° |
| 2026-04-07 20:46 | 50.82607 | -61.48637 | 37701 ft | 462 kts | 229° |
| 2026-04-07 20:46 | 50.80531 | -61.52508 | 37909 ft | 461 kts | 229° |
| 2026-04-07 20:46 | 50.78455 | -61.56386 | 38036 ft | 463 kts | 229° |
| 2026-04-07 20:46 | 50.76371 | -61.60285 | 38131 ft | 465 kts | 229° |
| 2026-04-07 20:47 | 50.72166 | -61.68167 | 38186 ft | 474 kts | 229° |
| 2026-04-07 20:47 | 50.67876 | -61.76202 | 38154 ft | 484 kts | 228° |
| 2026-04-07 20:48 | 50.65667 | -61.80327 | 37731 ft | 501 kts | 228° |
| 2026-04-07 20:48 | 50.63387 | -61.84580 | 37499 ft | 511 kts | 228° |
| 2026-04-07 20:48 | 50.58782 | -61.93155 | 37824 ft | 512 kts | 228° |
| 2026-04-07 20:49 | 50.56477 | -61.97430 | 37987 ft | 513 kts | 228° |
| 2026-04-07 20:49 | 50.54159 | -62.01720 | 38081 ft | 515 kts | 228° |
| 2026-04-07 20:49 | 50.49487 | -62.10350 | 38173 ft | 523 kts | 228° |
| 2026-04-07 20:50 | 50.44731 | -62.19108 | 38186 ft | 532 kts | 228° |
| 2026-04-07 20:50 | 50.39908 | -62.27958 | 38190 ft | 541 kts | 228° |
| 2026-04-07 20:51 | 50.34959 | -62.37014 | 38155 ft | 552 kts | 227° |
| 2026-04-07 20:51 | 50.29925 | -62.46185 | 38187 ft | 560 kts | 227° |
| 2026-04-07 20:52 | 50.24798 | -62.55489 | 38191 ft | 569 kts | 227° |
| 2026-04-07 20:52 | 50.19626 | -62.64847 | 38191 ft | 579 kts | 227° |
| 2026-04-07 20:53 | 50.14315 | -62.74424 | 38191 ft | 588 kts | 227° |
| 2026-04-07 20:53 | 50.08905 | -62.84141 | 38191 ft | 598 kts | 227° |
| 2026-04-07 20:54 | 50.03412 | -62.93970 | 38186 ft | 606 kts | 227° |
| 2026-04-07 20:54 | 49.97844 | -63.03896 | 38183 ft | 612 kts | 227° |
| 2026-04-07 20:55 | 49.92213 | -63.13897 | 38176 ft | 615 kts | 227° |
| 2026-04-07 20:55 | 49.86649 | -63.23745 | 38157 ft | 606 kts | 226° |
| 2026-04-07 20:56 | 49.81091 | -63.33541 | 38168 ft | 604 kts | 226° |
| 2026-04-07 20:56 | 49.75537 | -63.43287 | 38172 ft | 604 kts | 226° |
| 2026-04-07 20:57 | 49.69976 | -63.53011 | 38170 ft | 604 kts | 226° |
| 2026-04-07 20:57 | 49.64396 | -63.62731 | 38177 ft | 605 kts | 226° |
| 2026-04-07 20:58 | 49.58794 | -63.72455 | 38173 ft | 607 kts | 226° |
| 2026-04-07 20:58 | 49.53173 | -63.82176 | 38174 ft | 608 kts | 226° |
| 2026-04-07 20:59 | 49.47537 | -63.91886 | 38173 ft | 608 kts | 226° |
| 2026-04-07 20:59 | 49.41889 | -64.01581 | 38170 ft | 609 kts | 226° |
| 2026-04-07 21:00 | 49.33399 | -64.16085 | 38173 ft | 609 kts | 226° |
| 2026-04-07 21:01 | 49.27729 | -64.25728 | 38172 ft | 608 kts | 225° |
| 2026-04-07 21:01 | 49.22058 | -64.35336 | 38174 ft | 608 kts | 225° |
| 2026-04-07 21:02 | 49.16384 | -64.44912 | 38172 ft | 608 kts | 225° |
| 2026-04-07 21:02 | 49.10735 | -64.54413 | 38171 ft | 607 kts | 225° |
| 2026-04-07 21:03 | 49.05041 | -64.63949 | 38168 ft | 608 kts | 225° |
| 2026-04-07 21:03 | 48.99340 | -64.73468 | 38171 ft | 608 kts | 225° |
| 2026-04-07 21:04 | 48.93636 | -64.82958 | 38175 ft | 608 kts | 225° |
| 2026-04-07 21:04 | 48.87911 | -64.92443 | 38169 ft | 609 kts | 225° |
| 2026-04-07 21:05 | 48.82177 | -65.01914 | 38166 ft | 609 kts | 225° |
| 2026-04-07 21:05 | 48.76474 | -65.11310 | 38170 ft | 610 kts | 225° |
| 2026-04-07 21:06 | 48.70709 | -65.20740 | 38167 ft | 610 kts | 225° |
| 2026-04-07 21:06 | 48.64904 | -65.30222 | 38164 ft | 610 kts | 225° |
| 2026-04-07 21:07 | 48.59176 | -65.39563 | 38173 ft | 610 kts | 225° |
| 2026-04-07 21:07 | 48.53402 | -65.48936 | 38176 ft | 609 kts | 224° |
| 2026-04-07 21:08 | 48.47608 | -65.58269 | 38164 ft | 609 kts | 224° |
| 2026-04-07 21:08 | 48.41825 | -65.67597 | 38161 ft | 609 kts | 224° |
| 2026-04-07 21:09 | 48.36029 | -65.76898 | 38176 ft | 609 kts | 224° |
| 2026-04-07 21:09 | 48.30217 | -65.86173 | 38170 ft | 609 kts | 224° |
| 2026-04-07 21:10 | 48.24444 | -65.95364 | 38175 ft | 608 kts | 224° |
| 2026-04-07 21:10 | 48.18630 | -66.04593 | 38172 ft | 608 kts | 224° |
| 2026-04-07 21:11 | 48.12811 | -66.13807 | 38166 ft | 609 kts | 224° |
| 2026-04-07 21:11 | 48.07937 | -66.21503 | 38179 ft | 608 kts | 224° |
| 2026-04-07 21:12 | 48.02105 | -66.30658 | 38171 ft | 608 kts | 224° |
| 2026-04-07 21:12 | 47.96310 | -66.39727 | 38168 ft | 607 kts | 224° |
| 2026-04-07 21:13 | 47.90478 | -66.48830 | 38167 ft | 607 kts | 223° |
| 2026-04-07 21:13 | 47.84636 | -66.57917 | 38174 ft | 607 kts | 223° |
| 2026-04-07 21:14 | 47.78790 | -66.66978 | 38170 ft | 607 kts | 223° |
| 2026-04-07 21:14 | 47.73124 | -66.75709 | 40905 ft | 547 kts | 229° |
| 2026-04-07 21:14 | 47.70603 | -66.79579 | 40786 ft | 497 kts | 229° |
| 2026-04-07 21:15 | 47.68285 | -66.83167 | 40905 ft | 465 kts | 229° |
| 2026-04-07 21:15 | 47.66100 | -66.86562 | 40920 ft | 444 kts | 230° |
| 2026-04-07 21:15 | 47.64008 | -66.89835 | 40711 ft | 432 kts | 229° |
| 2026-04-07 21:15 | 47.61940 | -66.92980 | 40494 ft | 419 kts | 229° |
| 2026-04-07 21:16 | 47.59913 | -66.96045 | 40371 ft | 416 kts | 229° |
| 2026-04-07 21:16 | 47.55866 | -67.02199 | 40324 ft | 418 kts | 229° |
| 2026-04-07 21:17 | 47.51802 | -67.08397 | 40278 ft | 420 kts | 229° |
| 2026-04-07 21:17 | 47.47726 | -67.14600 | 40241 ft | 421 kts | 229° |
| 2026-04-07 21:18 | 47.43645 | -67.20796 | 40236 ft | 421 kts | 229° |
| 2026-04-07 21:18 | 47.39585 | -67.26945 | 40241 ft | 421 kts | 229° |
| 2026-04-07 21:19 | 47.35402 | -67.32998 | 40245 ft | 422 kts | 226° |
| 2026-04-07 21:19 | 47.31038 | -67.38815 | 40247 ft | 423 kts | 226° |
| 2026-04-07 21:20 | 47.26668 | -67.44621 | 40247 ft | 423 kts | 226° |
| 2026-04-07 21:20 | 47.22296 | -67.50436 | 40250 ft | 423 kts | 226° |
| 2026-04-07 21:21 | 47.17928 | -67.56242 | 40248 ft | 424 kts | 226° |
| 2026-04-07 21:21 | 47.13553 | -67.62045 | 40248 ft | 424 kts | 226° |
| 2026-04-07 21:22 | 47.09169 | -67.67847 | 40250 ft | 424 kts | 226° |
| 2026-04-07 21:22 | 47.04806 | -67.73608 | 40230 ft | 424 kts | 226° |
| 2026-04-07 21:23 | 47.00419 | -67.79386 | 40221 ft | 424 kts | 226° |
| 2026-04-07 21:23 | 46.96031 | -67.85154 | 40214 ft | 424 kts | 226° |
| 2026-04-07 21:24 | 46.91638 | -67.90915 | 40204 ft | 424 kts | 226° |
| 2026-04-07 21:24 | 46.87250 | -67.96656 | 40189 ft | 423 kts | 226° |
| 2026-04-07 21:25 | 46.82861 | -68.02388 | 40206 ft | 423 kts | 226° |
| 2026-04-07 21:25 | 46.78410 | -68.08022 | 40201 ft | 426 kts | 222° |
| 2026-04-07 21:26 | 46.73424 | -68.12768 | 40222 ft | 432 kts | 214° |
| 2026-04-07 21:26 | 46.68142 | -68.16952 | 40221 ft | 432 kts | 214° |
| 2026-04-07 21:27 | 46.62863 | -68.21155 | 40231 ft | 432 kts | 214° |
| 2026-04-07 21:27 | 46.57626 | -68.25334 | 40238 ft | 433 kts | 214° |
| 2026-04-07 21:28 | 46.52346 | -68.29543 | 40235 ft | 432 kts | 214° |
| 2026-04-07 21:28 | 46.47071 | -68.33741 | 40245 ft | 433 kts | 214° |
| 2026-04-07 21:29 | 46.41788 | -68.37934 | 40264 ft | 433 kts | 214° |
| 2026-04-07 21:29 | 46.36502 | -68.42122 | 40252 ft | 433 kts | 214° |
| 2026-04-07 21:30 | 46.31213 | -68.46300 | 40246 ft | 433 kts | 214° |
| 2026-04-07 21:30 | 46.25925 | -68.50471 | 40252 ft | 433 kts | 214° |
| 2026-04-07 21:31 | 46.20623 | -68.54642 | 40248 ft | 434 kts | 214° |
| 2026-04-07 21:31 | 46.15326 | -68.58800 | 40230 ft | 433 kts | 214° |
| 2026-04-07 21:32 | 46.10038 | -68.62942 | 40238 ft | 433 kts | 214° |
| 2026-04-07 21:32 | 46.04740 | -68.67083 | 40235 ft | 432 kts | 214° |
| 2026-04-07 21:33 | 45.99454 | -68.71204 | 40239 ft | 432 kts | 214° |
| 2026-04-07 21:33 | 45.94169 | -68.75317 | 40227 ft | 431 kts | 214° |
| 2026-04-07 21:34 | 45.88892 | -68.79415 | 40236 ft | 431 kts | 214° |
| 2026-04-07 21:34 | 45.83617 | -68.83502 | 40236 ft | 431 kts | 214° |
| 2026-04-07 21:35 | 45.78345 | -68.87577 | 40215 ft | 430 kts | 214° |
| 2026-04-07 21:35 | 45.73083 | -68.91636 | 40222 ft | 429 kts | 214° |
| 2026-04-07 21:36 | 45.67824 | -68.95685 | 40228 ft | 429 kts | 214° |
| 2026-04-07 21:36 | 45.62600 | -68.99698 | 40194 ft | 429 kts | 214° |
| 2026-04-07 21:37 | 45.57353 | -69.03718 | 40217 ft | 428 kts | 214° |
| 2026-04-07 21:37 | 45.52106 | -69.07732 | 40216 ft | 428 kts | 214° |
| 2026-04-07 21:38 | 45.46862 | -69.11735 | 40222 ft | 428 kts | 214° |
| 2026-04-07 21:38 | 45.41609 | -69.15736 | 40221 ft | 427 kts | 214° |
| 2026-04-07 21:39 | 45.36363 | -69.19722 | 40225 ft | 427 kts | 214° |
| 2026-04-07 21:39 | 45.31112 | -69.23705 | 40223 ft | 428 kts | 214° |
| 2026-04-07 21:40 | 45.25857 | -69.27681 | 40196 ft | 428 kts | 215° |
| 2026-04-07 21:40 | 45.20612 | -69.31642 | 40210 ft | 428 kts | 214° |
| 2026-04-07 21:41 | 45.15357 | -69.35602 | 40224 ft | 428 kts | 214° |
| 2026-04-07 21:41 | 45.10085 | -69.39567 | 40213 ft | 428 kts | 214° |
| 2026-04-07 21:42 | 45.04816 | -69.43521 | 40211 ft | 428 kts | 215° |
| 2026-04-07 21:42 | 44.99542 | -69.47470 | 40214 ft | 429 kts | 214° |
| 2026-04-07 21:43 | 44.94261 | -69.51417 | 40221 ft | 430 kts | 214° |
| 2026-04-07 21:43 | 44.88975 | -69.55360 | 40217 ft | 430 kts | 214° |
| 2026-04-07 21:44 | 44.83679 | -69.59300 | 40216 ft | 430 kts | 214° |
| 2026-04-07 21:44 | 44.78379 | -69.63235 | 40215 ft | 431 kts | 214° |
| 2026-04-07 21:45 | 44.73102 | -69.67146 | 40212 ft | 431 kts | 214° |
| 2026-04-07 21:45 | 44.67804 | -69.71064 | 40209 ft | 430 kts | 214° |
| 2026-04-07 21:46 | 44.62500 | -69.74979 | 40211 ft | 430 kts | 214° |
| 2026-04-07 21:46 | 44.57202 | -69.78881 | 40217 ft | 430 kts | 214° |
| 2026-04-07 21:47 | 44.51895 | -69.82782 | 40207 ft | 430 kts | 214° |
| 2026-04-07 21:47 | 44.46602 | -69.86665 | 40208 ft | 429 kts | 214° |
| 2026-04-07 21:48 | 44.41342 | -69.90600 | 40235 ft | 428 kts | 216° |
| 2026-04-07 21:48 | 44.36188 | -69.94765 | 40222 ft | 427 kts | 217° |
| 2026-04-07 21:49 | 44.31055 | -69.98943 | 40234 ft | 427 kts | 217° |
| 2026-04-07 21:49 | 44.25911 | -70.03090 | 40216 ft | 427 kts | 216° |
| 2026-04-07 21:50 | 44.20764 | -70.07208 | 40218 ft | 426 kts | 216° |
| 2026-04-07 21:50 | 44.15623 | -70.11307 | 40213 ft | 425 kts | 216° |
| 2026-04-07 21:51 | 44.10517 | -70.15370 | 40226 ft | 425 kts | 216° |
| 2026-04-07 21:51 | 44.05384 | -70.19447 | 40232 ft | 425 kts | 216° |
| 2026-04-07 21:52 | 44.00256 | -70.23511 | 40218 ft | 424 kts | 216° |
| 2026-04-07 21:52 | 43.95137 | -70.27560 | 40224 ft | 423 kts | 216° |
| 2026-04-07 21:53 | 43.90006 | -70.31612 | 40218 ft | 423 kts | 216° |
| 2026-04-07 21:53 | 43.84881 | -70.35651 | 40188 ft | 423 kts | 216° |
| 2026-04-07 21:54 | 43.79762 | -70.39676 | 40211 ft | 423 kts | 216° |
| 2026-04-07 21:54 | 43.74674 | -70.43669 | 40218 ft | 423 kts | 216° |
| 2026-04-07 21:55 | 43.69553 | -70.47680 | 40218 ft | 423 kts | 216° |
| 2026-04-07 21:55 | 43.64430 | -70.51685 | 40209 ft | 423 kts | 216° |
| 2026-04-07 21:56 | 43.59303 | -70.55686 | 40228 ft | 423 kts | 216° |
| 2026-04-07 21:56 | 43.55000 | -70.59037 | 40225 ft | 424 kts | 216° |
| 2026-04-07 21:57 | 43.49868 | -70.63026 | 40216 ft | 423 kts | 216° |
| 2026-04-07 21:57 | 43.44773 | -70.66980 | 40225 ft | 423 kts | 216° |
| 2026-04-07 21:58 | 43.39643 | -70.70954 | 40232 ft | 423 kts | 216° |
| 2026-04-07 21:58 | 43.34517 | -70.74916 | 40201 ft | 423 kts | 216° |
| 2026-04-07 21:59 | 43.29396 | -70.78866 | 40227 ft | 422 kts | 217° |
| 2026-04-07 21:59 | 43.24283 | -70.82805 | 40237 ft | 421 kts | 217° |
| 2026-04-07 22:00 | 43.19172 | -70.86738 | 40244 ft | 421 kts | 216° |
| 2026-04-07 22:00 | 43.14053 | -70.90669 | 40224 ft | 421 kts | 217° |
| 2026-04-07 22:01 | 43.08937 | -70.94589 | 40210 ft | 421 kts | 216° |
| 2026-04-07 22:01 | 43.03825 | -70.98499 | 40215 ft | 421 kts | 216° |
| 2026-04-07 22:02 | 42.98718 | -71.02399 | 40206 ft | 420 kts | 217° |
| 2026-04-07 22:02 | 42.93627 | -71.06280 | 40224 ft | 418 kts | 217° |
| 2026-04-07 22:03 | 42.88854 | -71.10658 | 40252 ft | 409 kts | 225° |
| 2026-04-07 22:03 | 42.82141 | -71.17883 | 40238 ft | 409 kts | 224° |
| 2026-04-07 22:04 | 42.77656 | -71.22646 | 40242 ft | 409 kts | 224° |
| 2026-04-07 22:04 | 42.73196 | -71.27376 | 40241 ft | 409 kts | 224° |
| 2026-04-07 22:05 | 42.68705 | -71.32134 | 40245 ft | 409 kts | 224° |
| 2026-04-07 22:05 | 42.66510 | -71.34460 | 38674 ft | 412 kts | 219° |
| 2026-04-07 22:05 | 42.64230 | -71.36873 | 38661 ft | 417 kts | 218° |
| 2026-04-07 22:06 | 42.59665 | -71.41688 | 38960 ft | 421 kts | 218° |
| 2026-04-07 22:06 | 42.57348 | -71.44131 | 39145 ft | 422 kts | 214° |
| 2026-04-07 22:06 | 42.55019 | -71.46580 | 39183 ft | 427 kts | 218° |
| 2026-04-07 22:07 | 42.50280 | -71.51560 | 39399 ft | 431 kts | 217° |
| 2026-04-07 22:07 | 42.47914 | -71.54046 | 39650 ft | 430 kts | 217° |
| 2026-04-07 22:07 | 42.45545 | -71.56532 | 39796 ft | 432 kts | 217° |
| 2026-04-07 22:08 | 42.40750 | -71.61556 | 39904 ft | 440 kts | 217° |
| 2026-04-07 22:08 | 42.35857 | -71.66670 | 39979 ft | 449 kts | 217° |
| 2026-04-07 22:09 | 42.30844 | -71.71901 | 39975 ft | 461 kts | 217° |
| 2026-04-07 22:09 | 42.25704 | -71.77252 | 39966 ft | 473 kts | 217° |
| 2026-04-07 22:10 | 42.20467 | -71.82695 | 39964 ft | 484 kts | 217° |
| 2026-04-07 22:10 | 42.15121 | -71.88201 | 39952 ft | 495 kts | 214° |
| 2026-04-07 22:11 | 42.09132 | -71.92913 | 39985 ft | 503 kts | 204° |
| 2026-04-07 22:11 | 42.02798 | -71.97162 | 39985 ft | 514 kts | 204° |
| 2026-04-07 22:12 | 41.96329 | -72.01524 | 39982 ft | 525 kts | 205° |
| 2026-04-07 22:12 | 41.89743 | -72.06016 | 39977 ft | 535 kts | 205° |
| 2026-04-07 22:13 | 41.83060 | -72.10584 | 39973 ft | 543 kts | 205° |
| 2026-04-07 22:13 | 41.76293 | -72.15198 | 39966 ft | 547 kts | 205° |
| 2026-04-07 22:14 | 41.69556 | -72.19777 | 39951 ft | 538 kts | 205° |
| 2026-04-07 22:14 | 41.62890 | -72.24294 | 39960 ft | 536 kts | 205° |
| 2026-04-07 22:15 | 41.56232 | -72.28793 | 39962 ft | 536 kts | 205° |
| 2026-04-07 22:15 | 41.49574 | -72.33282 | 39962 ft | 537 kts | 205° |
| 2026-04-07 22:16 | 41.42947 | -72.37742 | 39959 ft | 537 kts | 205° |
| 2026-04-07 22:16 | 41.36264 | -72.42230 | 39966 ft | 538 kts | 205° |
| 2026-04-07 22:17 | 41.29581 | -72.46709 | 39964 ft | 538 kts | 205° |
| 2026-04-07 22:17 | 41.23183 | -72.51910 | 39963 ft | 540 kts | 214° |
| 2026-04-07 22:18 | 41.17060 | -72.57696 | 39958 ft | 540 kts | 214° |
| 2026-04-07 22:18 | 41.10914 | -72.63442 | 39962 ft | 540 kts | 214° |
| 2026-04-07 22:19 | 41.04734 | -72.69134 | 39960 ft | 541 kts | 214° |
| 2026-04-07 22:19 | 40.98553 | -72.74805 | 39960 ft | 541 kts | 214° |
| 2026-04-07 22:20 | 40.92368 | -72.80480 | 39959 ft | 541 kts | 214° |
| 2026-04-07 22:20 | 40.86319 | -72.86289 | 39963 ft | 541 kts | 216° |
| 2026-04-07 22:21 | 40.80289 | -72.92235 | 39963 ft | 541 kts | 216° |
| 2026-04-07 22:21 | 40.74203 | -72.98193 | 39962 ft | 541 kts | 216° |
| 2026-04-07 22:22 | 40.68185 | -73.04029 | 39961 ft | 541 kts | 216° |
| 2026-04-07 22:22 | 40.62119 | -73.09886 | 39960 ft | 540 kts | 215° |
| 2026-04-07 22:23 | 40.56058 | -73.15729 | 39963 ft | 540 kts | 215° |
| 2026-04-07 22:23 | 40.49996 | -73.21562 | 39960 ft | 540 kts | 215° |
| 2026-04-07 22:24 | 40.43933 | -73.27384 | 39964 ft | 540 kts | 215° |
| 2026-04-07 22:24 | 40.37862 | -73.33200 | 39960 ft | 540 kts | 215° |
| 2026-04-07 22:25 | 40.31790 | -73.39003 | 39965 ft | 540 kts | 215° |
| 2026-04-07 22:25 | 40.25718 | -73.44795 | 39963 ft | 540 kts | 215° |
| 2026-04-07 22:26 | 40.19642 | -73.50563 | 39960 ft | 540 kts | 215° |
| 2026-04-07 22:26 | 40.13557 | -73.56320 | 39966 ft | 540 kts | 215° |
| 2026-04-07 22:27 | 40.07471 | -73.62069 | 39961 ft | 540 kts | 215° |
| 2026-04-07 22:27 | 40.01428 | -73.67768 | 39962 ft | 540 kts | 215° |
| 2026-04-07 22:28 | 39.95131 | -73.73065 | 39962 ft | 538 kts | 206° |
| 2026-04-07 22:28 | 39.88293 | -73.76953 | 39977 ft | 535 kts | 199° |
| 2026-04-07 22:29 | 39.81366 | -73.80520 | 39959 ft | 536 kts | 199° |
| 2026-04-07 22:29 | 39.74448 | -73.84151 | 39965 ft | 536 kts | 199° |
| 2026-04-07 22:30 | 39.67541 | -73.87815 | 39964 ft | 536 kts | 199° |
| 2026-04-07 22:30 | 39.60629 | -73.91474 | 39961 ft | 537 kts | 199° |
| 2026-04-07 22:31 | 39.53710 | -73.95124 | 39960 ft | 537 kts | 199° |
| 2026-04-07 22:31 | 39.46786 | -73.98769 | 39964 ft | 537 kts | 200° |
| 2026-04-07 22:32 | 39.40155 | -74.03280 | 39964 ft | 540 kts | 212° |
| 2026-04-07 22:32 | 39.34185 | -74.09172 | 39979 ft | 540 kts | 220° |
| 2026-04-07 22:33 | 39.28528 | -74.15485 | 39959 ft | 541 kts | 220° |
| 2026-04-07 22:33 | 39.22812 | -74.21794 | 39965 ft | 541 kts | 220° |
| 2026-04-07 22:34 | 39.17063 | -74.28055 | 39960 ft | 541 kts | 220° |
| 2026-04-07 22:34 | 39.11306 | -74.34296 | 39962 ft | 541 kts | 220° |
| 2026-04-07 22:35 | 39.05539 | -74.40541 | 39963 ft | 541 kts | 220° |
| 2026-04-07 22:35 | 38.99779 | -74.46771 | 39964 ft | 541 kts | 220° |
| 2026-04-07 22:36 | 38.94014 | -74.52991 | 39963 ft | 541 kts | 220° |
| 2026-04-07 22:36 | 38.88397 | -74.59420 | 39962 ft | 541 kts | 223° |
| 2026-04-07 22:37 | 38.82895 | -74.65994 | 39961 ft | 541 kts | 223° |
| 2026-04-07 22:37 | 38.77379 | -74.72454 | 39962 ft | 541 kts | 222° |
| 2026-04-07 22:38 | 38.71697 | -74.78749 | 39965 ft | 540 kts | 219° |
| 2026-04-07 22:38 | 38.65845 | -74.84786 | 39962 ft | 540 kts | 218° |
| 2026-04-07 22:39 | 38.59998 | -74.90826 | 39962 ft | 540 kts | 219° |
| 2026-04-07 22:39 | 38.54161 | -74.96893 | 39963 ft | 540 kts | 219° |
| 2026-04-07 22:40 | 38.48426 | -75.03091 | 39965 ft | 540 kts | 221° |
| 2026-04-07 22:40 | 38.42645 | -75.09222 | 39981 ft | 540 kts | 216° |
| 2026-04-07 22:41 | 38.36581 | -75.14872 | 39960 ft | 540 kts | 215° |
| 2026-04-07 22:41 | 38.30541 | -75.20462 | 39966 ft | 540 kts | 216° |
| 2026-04-07 22:42 | 38.24501 | -75.26159 | 39962 ft | 540 kts | 216° |
| 2026-04-07 22:42 | 38.18474 | -75.31876 | 39965 ft | 541 kts | 216° |
| 2026-04-07 22:43 | 38.12437 | -75.37579 | 39963 ft | 541 kts | 216° |
| 2026-04-07 22:43 | 38.06393 | -75.43270 | 39964 ft | 541 kts | 216° |
| 2026-04-07 22:44 | 38.00268 | -75.48804 | 39964 ft | 540 kts | 213° |
| 2026-04-07 22:44 | 37.95076 | -75.53214 | 39965 ft | 540 kts | 213° |
| 2026-04-07 22:45 | 37.88856 | -75.58558 | 39961 ft | 540 kts | 213° |
| 2026-04-07 22:45 | 37.82513 | -75.63655 | 39962 ft | 538 kts | 205° |
| 2026-04-07 22:46 | 37.75714 | -75.67561 | 39963 ft | 537 kts | 201° |
| 2026-04-07 22:46 | 37.68870 | -75.71349 | 39959 ft | 537 kts | 201° |
| 2026-04-07 22:47 | 37.62045 | -75.75191 | 39964 ft | 537 kts | 202° |
| 2026-04-07 22:47 | 37.55227 | -75.79061 | 39963 ft | 538 kts | 202° |
| 2026-04-07 22:48 | 37.48399 | -75.82932 | 39964 ft | 538 kts | 202° |
| 2026-04-07 22:48 | 37.41618 | -75.86762 | 39964 ft | 538 kts | 202° |
| 2026-04-07 22:49 | 37.34782 | -75.90614 | 39965 ft | 538 kts | 201° |
| 2026-04-07 22:49 | 37.27949 | -75.94457 | 39960 ft | 538 kts | 201° |
| 2026-04-07 22:50 | 37.21120 | -75.98291 | 39963 ft | 538 kts | 201° |
| 2026-04-07 22:50 | 37.14277 | -76.02125 | 39964 ft | 538 kts | 201° |
| 2026-04-07 22:51 | 37.07579 | -76.06338 | 39976 ft | 539 kts | 207° |
| 2026-04-07 22:51 | 37.01026 | -76.10916 | 39956 ft | 539 kts | 207° |
| 2026-04-07 22:52 | 36.94475 | -76.15487 | 39965 ft | 539 kts | 207° |
| 2026-04-07 22:52 | 36.87915 | -76.20015 | 39961 ft | 539 kts | 207° |
| 2026-04-07 22:53 | 36.81346 | -76.24521 | 39964 ft | 539 kts | 207° |
| 2026-04-07 22:53 | 36.74766 | -76.29025 | 39961 ft | 539 kts | 207° |
| 2026-04-07 22:54 | 36.68187 | -76.33523 | 39961 ft | 539 kts | 207° |
| 2026-04-07 22:54 | 36.61610 | -76.38013 | 39962 ft | 539 kts | 207° |
| 2026-04-07 22:55 | 36.55029 | -76.42496 | 39962 ft | 539 kts | 207° |
| 2026-04-07 22:55 | 36.48496 | -76.46938 | 39962 ft | 539 kts | 207° |
| 2026-04-07 22:56 | 36.41913 | -76.51404 | 39963 ft | 539 kts | 207° |
| 2026-04-07 22:56 | 36.35328 | -76.55864 | 39962 ft | 539 kts | 207° |
| 2026-04-07 22:57 | 36.28739 | -76.60318 | 39964 ft | 539 kts | 207° |
| 2026-04-07 22:57 | 36.22154 | -76.64760 | 39967 ft | 539 kts | 207° |
| 2026-04-07 22:58 | 36.15561 | -76.69200 | 39961 ft | 539 kts | 207° |
| 2026-04-07 22:58 | 36.08970 | -76.73629 | 39964 ft | 539 kts | 207° |
| 2026-04-07 22:59 | 36.02372 | -76.78055 | 39963 ft | 539 kts | 206° |
| 2026-04-07 22:59 | 35.95779 | -76.82471 | 39964 ft | 539 kts | 206° |
| 2026-04-07 23:00 | 35.89222 | -76.86833 | 39963 ft | 539 kts | 205° |
| 2026-04-07 23:00 | 35.82533 | -76.90990 | 39963 ft | 538 kts | 204° |
| 2026-04-07 23:01 | 35.75810 | -76.95049 | 39960 ft | 538 kts | 204° |
| 2026-04-07 23:02 | 35.65738 | -77.01186 | 39963 ft | 538 kts | 204° |
| 2026-04-07 23:02 | 35.59032 | -77.05297 | 39963 ft | 538 kts | 204° |
| 2026-04-07 23:03 | 35.52323 | -77.09403 | 39960 ft | 538 kts | 204° |
| 2026-04-07 23:03 | 35.45616 | -77.13497 | 39959 ft | 539 kts | 204° |
| 2026-04-07 23:04 | 35.38900 | -77.17587 | 39962 ft | 539 kts | 204° |
| 2026-04-07 23:04 | 35.32183 | -77.21670 | 39964 ft | 539 kts | 204° |
| 2026-04-07 23:05 | 35.25474 | -77.25740 | 39964 ft | 539 kts | 204° |
| 2026-04-07 23:05 | 35.18850 | -77.29755 | 39906 ft | 543 kts | 202° |
| 2026-04-07 23:06 | 35.12058 | -77.33856 | 39981 ft | 554 kts | 201° |
| 2026-04-07 23:06 | 35.05061 | -77.38068 | 39981 ft | 566 kts | 201° |
| 2026-04-07 23:07 | 34.97913 | -77.42372 | 39980 ft | 579 kts | 202° |
| 2026-04-07 23:07 | 34.90604 | -77.46768 | 39981 ft | 590 kts | 202° |
| 2026-04-07 23:08 | 34.83178 | -77.51225 | 39981 ft | 600 kts | 202° |
| 2026-04-07 23:08 | 34.75658 | -77.55729 | 39959 ft | 603 kts | 202° |
| 2026-04-07 23:09 | 34.68200 | -77.60192 | 39950 ft | 593 kts | 202° |
| 2026-04-07 23:09 | 34.60791 | -77.64602 | 39958 ft | 592 kts | 200° |
| 2026-04-07 23:10 | 34.53176 | -77.68159 | 39966 ft | 582 kts | 189° |
| 2026-04-07 23:10 | 34.45395 | -77.70256 | 39981 ft | 575 kts | 183° |
| 2026-04-07 23:11 | 34.37487 | -77.72158 | 39962 ft | 577 kts | 183° |
| 2026-04-07 23:11 | 34.29669 | -77.74116 | 39966 ft | 578 kts | 184° |
| 2026-04-07 23:12 | 34.21779 | -77.76132 | 39965 ft | 580 kts | 184° |
| 2026-04-07 23:12 | 34.13881 | -77.78145 | 39961 ft | 580 kts | 184° |
| 2026-04-07 23:13 | 34.05971 | -77.80150 | 39959 ft | 581 kts | 184° |
| 2026-04-07 23:13 | 33.98059 | -77.82148 | 39966 ft | 581 kts | 184° |
| 2026-04-07 23:14 | 33.90147 | -77.84144 | 39963 ft | 581 kts | 184° |
| 2026-04-07 23:14 | 33.82233 | -77.86137 | 39962 ft | 580 kts | 184° |
| 2026-04-07 23:15 | 33.74358 | -77.88450 | 39964 ft | 585 kts | 189° |
| 2026-04-07 23:15 | 33.66585 | -77.91160 | 39963 ft | 585 kts | 189° |
| 2026-04-07 23:16 | 33.58765 | -77.93851 | 39960 ft | 584 kts | 188° |
| 2026-04-07 23:16 | 33.50940 | -77.96493 | 39962 ft | 584 kts | 188° |
| 2026-04-07 23:17 | 33.43124 | -77.99132 | 39962 ft | 584 kts | 188° |
| 2026-04-07 23:17 | 33.35306 | -78.01772 | 39962 ft | 584 kts | 188° |
| 2026-04-07 23:18 | 33.27483 | -78.04409 | 39963 ft | 584 kts | 188° |
| 2026-04-07 23:18 | 33.19663 | -78.07039 | 39962 ft | 584 kts | 188° |
| 2026-04-07 23:19 | 33.11849 | -78.09661 | 39963 ft | 584 kts | 188° |
| 2026-04-07 23:19 | 33.04078 | -78.12265 | 39961 ft | 584 kts | 188° |
| 2026-04-07 23:20 | 32.96258 | -78.14881 | 39962 ft | 584 kts | 188° |
| 2026-04-07 23:20 | 32.88425 | -78.17496 | 39965 ft | 584 kts | 188° |
| 2026-04-07 23:21 | 32.80600 | -78.20104 | 39961 ft | 584 kts | 188° |
| 2026-04-07 23:21 | 32.72774 | -78.22708 | 39963 ft | 584 kts | 188° |
| 2026-04-07 23:22 | 32.64933 | -78.25300 | 39963 ft | 584 kts | 188° |
| 2026-04-07 23:22 | 32.57155 | -78.27859 | 39965 ft | 584 kts | 188° |
| 2026-04-07 23:23 | 32.49325 | -78.30433 | 39961 ft | 584 kts | 188° |
| 2026-04-07 23:23 | 32.41497 | -78.33005 | 39962 ft | 584 kts | 188° |
| 2026-04-07 23:24 | 32.33666 | -78.35573 | 39963 ft | 584 kts | 188° |
| 2026-04-07 23:24 | 32.25835 | -78.38143 | 39963 ft | 584 kts | 188° |
| 2026-04-07 23:25 | 32.18011 | -78.40713 | 39965 ft | 584 kts | 188° |
| 2026-04-07 23:25 | 32.10185 | -78.43280 | 39960 ft | 584 kts | 188° |
| 2026-04-07 23:26 | 32.02350 | -78.45843 | 39963 ft | 584 kts | 188° |
| 2026-04-07 23:26 | 31.94620 | -78.48367 | 39959 ft | 583 kts | 188° |
| 2026-04-07 23:26 | 31.90844 | -78.49590 | 40036 ft | 543 kts | 197° |
| 2026-04-07 23:27 | 31.87384 | -78.50711 | 40022 ft | 491 kts | 197° |
| 2026-04-07 23:27 | 31.84194 | -78.51747 | 40465 ft | 462 kts | 198° |
| 2026-04-07 23:27 | 31.81163 | -78.52734 | 40751 ft | 444 kts | 198° |
| 2026-04-07 23:27 | 31.78221 | -78.53694 | 40430 ft | 432 kts | 198° |
| 2026-04-07 23:28 | 31.75364 | -78.54626 | 40330 ft | 422 kts | 198° |
| 2026-04-07 23:28 | 31.69732 | -78.56462 | 40198 ft | 419 kts | 198° |
| 2026-04-07 23:29 | 31.64120 | -78.58285 | 40152 ft | 417 kts | 198° |
| 2026-04-07 23:29 | 31.58576 | -78.60081 | 40146 ft | 415 kts | 198° |
| 2026-04-07 23:30 | 31.52973 | -78.61902 | 40140 ft | 418 kts | 198° |
| 2026-04-07 23:30 | 31.47378 | -78.63817 | 40156 ft | 425 kts | 199° |
| 2026-04-07 23:31 | 31.41664 | -78.65795 | 40148 ft | 430 kts | 199° |
| 2026-04-07 23:31 | 31.35903 | -78.67777 | 40140 ft | 429 kts | 198° |
| 2026-04-07 23:32 | 31.30174 | -78.69737 | 40127 ft | 430 kts | 199° |
| 2026-04-07 23:32 | 31.24391 | -78.71714 | 40125 ft | 436 kts | 199° |
| 2026-04-07 23:33 | 31.18538 | -78.73713 | 40133 ft | 440 kts | 199° |
| 2026-04-07 23:33 | 31.12670 | -78.75713 | 40129 ft | 444 kts | 199° |
| 2026-04-07 23:34 | 31.06738 | -78.77732 | 40121 ft | 444 kts | 199° |
| 2026-04-07 23:34 | 31.03769 | -78.78740 | 40121 ft | 444 kts | 199° |
| 2026-04-07 23:35 | 30.95411 | -78.81578 | 40118 ft | 442 kts | 199° |
| 2026-04-07 23:35 | 30.89507 | -78.83580 | 40109 ft | 441 kts | 199° |
| 2026-04-07 23:36 | 30.83614 | -78.85576 | 40109 ft | 440 kts | 199° |
| 2026-04-07 23:36 | 30.77736 | -78.87565 | 40111 ft | 439 kts | 199° |
| 2026-04-07 23:37 | 30.71911 | -78.89532 | 40102 ft | 439 kts | 200° |
| 2026-04-07 23:37 | 30.66039 | -78.91514 | 40104 ft | 439 kts | 200° |
| 2026-04-07 23:38 | 30.60163 | -78.93495 | 40099 ft | 440 kts | 200° |
| 2026-04-07 23:38 | 30.54270 | -78.95478 | 40099 ft | 441 kts | 200° |
| 2026-04-07 23:39 | 30.48360 | -78.97465 | 40078 ft | 443 kts | 200° |
| 2026-04-07 23:39 | 30.42441 | -78.99465 | 40094 ft | 443 kts | 201° |
| 2026-04-07 23:40 | 30.36668 | -79.01916 | 40103 ft | 442 kts | 204° |
| 2026-04-07 23:40 | 30.30902 | -79.04458 | 40097 ft | 443 kts | 204° |
| 2026-04-07 23:41 | 30.25128 | -79.06989 | 40099 ft | 445 kts | 205° |
| 2026-04-07 23:41 | 30.19317 | -79.09524 | 40094 ft | 446 kts | 205° |
| 2026-04-07 23:42 | 30.13496 | -79.12056 | 40086 ft | 448 kts | 204° |
| 2026-04-07 23:42 | 30.07694 | -79.14575 | 40087 ft | 448 kts | 204° |
| 2026-04-07 23:43 | 30.01848 | -79.17110 | 40080 ft | 448 kts | 204° |
| 2026-04-07 23:43 | 29.96009 | -79.19640 | 40079 ft | 448 kts | 204° |
| 2026-04-07 23:44 | 29.90166 | -79.22168 | 40064 ft | 448 kts | 205° |
| 2026-04-07 23:44 | 29.84327 | -79.24691 | 40068 ft | 448 kts | 205° |
| 2026-04-07 23:45 | 29.78490 | -79.27210 | 40077 ft | 448 kts | 205° |
| 2026-04-07 23:45 | 29.72688 | -79.29712 | 40065 ft | 448 kts | 205° |
| 2026-04-07 23:46 | 29.66816 | -79.32240 | 40038 ft | 448 kts | 205° |
| 2026-04-07 23:46 | 29.61012 | -79.34736 | 40050 ft | 448 kts | 205° |
| 2026-04-07 23:47 | 29.55179 | -79.37241 | 40062 ft | 448 kts | 205° |
| 2026-04-07 23:47 | 29.49336 | -79.39748 | 40057 ft | 448 kts | 205° |
| 2026-04-07 23:48 | 29.43490 | -79.42253 | 40058 ft | 448 kts | 205° |
| 2026-04-07 23:48 | 29.37640 | -79.44755 | 40052 ft | 449 kts | 205° |
| 2026-04-07 23:49 | 29.31789 | -79.47257 | 40051 ft | 449 kts | 205° |
| 2026-04-07 23:49 | 29.25921 | -79.49764 | 39730 ft | 455 kts | 205° |
| 2026-04-07 23:49 | 29.22935 | -79.51039 | 39083 ft | 457 kts | 205° |
| 2026-04-07 23:50 | 29.19961 | -79.52305 | 38282 ft | 456 kts | 205° |
| 2026-04-07 23:50 | 29.16992 | -79.53568 | 37466 ft | 453 kts | 205° |
| 2026-04-07 23:50 | 29.14056 | -79.54841 | 36698 ft | 446 kts | 207° |
| 2026-04-07 23:50 | 29.11455 | -79.56658 | 35938 ft | 435 kts | 223° |
| 2026-04-07 23:51 | 29.09400 | -79.59113 | 35123 ft | 432 kts | 233° |
| 2026-04-07 23:51 | 29.07760 | -79.61995 | 34243 ft | 434 kts | 243° |
| 2026-04-07 23:51 | 29.06677 | -79.65216 | 33238 ft | 435 kts | 250° |
| 2026-04-07 23:51 | 29.05730 | -79.68514 | 32207 ft | 438 kts | 250° |
| 2026-04-07 23:52 | 29.04777 | -79.71834 | 31170 ft | 440 kts | 250° |
| 2026-04-07 23:52 | 29.03808 | -79.75144 | 30413 ft | 438 kts | 250° |
| 2026-04-07 23:52 | 29.02831 | -79.78422 | 29588 ft | 435 kts | 250° |
| 2026-04-07 23:52 | 29.01845 | -79.81679 | 28774 ft | 431 kts | 250° |
| 2026-04-07 23:53 | 29.00862 | -79.84908 | 28008 ft | 428 kts | 250° |
| 2026-04-07 23:53 | 28.99886 | -79.88100 | 27271 ft | 423 kts | 250° |
| 2026-04-07 23:53 | 28.98921 | -79.91260 | 26554 ft | 419 kts | 250° |
| 2026-04-07 23:53 | 28.97964 | -79.94388 | 25840 ft | 416 kts | 250° |
| 2026-04-07 23:54 | 28.97015 | -79.97490 | 25141 ft | 412 kts | 251° |
| 2026-04-07 23:54 | 28.96112 | -80.00584 | 24443 ft | 409 kts | 252° |
| 2026-04-07 23:54 | 28.95258 | -80.03668 | 23730 ft | 407 kts | 252° |
| 2026-04-07 23:54 | 28.94422 | -80.06738 | 22935 ft | 404 kts | 252° |
| 2026-04-07 23:55 | 28.93591 | -80.09783 | 22206 ft | 400 kts | 252° |
| 2026-04-07 23:55 | 28.92764 | -80.12795 | 21509 ft | 396 kts | 252° |
| 2026-04-07 23:55 | 28.91939 | -80.15782 | 20839 ft | 393 kts | 252° |
| 2026-04-07 23:55 | 28.91118 | -80.18741 | 20203 ft | 390 kts | 253° |
| 2026-04-07 23:56 | 28.90299 | -80.21687 | 19559 ft | 389 kts | 253° |
| 2026-04-07 23:56 | 28.89480 | -80.24625 | 18924 ft | 388 kts | 253° |
| 2026-04-07 23:56 | 28.88663 | -80.27555 | 18275 ft | 399 kts | 253° |
| 2026-04-07 23:56 | 28.87838 | -80.30512 | 17605 ft | 382 kts | 253° |
| 2026-04-07 23:57 | 28.87034 | -80.33390 | 16914 ft | 380 kts | 253° |
| 2026-04-07 23:57 | 28.86244 | -80.36215 | 16304 ft | 376 kts | 253° |
| 2026-04-07 23:57 | 28.85452 | -80.39048 | 15694 ft | 374 kts | 253° |
| 2026-04-07 23:57 | 28.84663 | -80.41866 | 15131 ft | 371 kts | 253° |
| 2026-04-07 23:58 | 28.83879 | -80.44659 | 14560 ft | 369 kts | 253° |
| 2026-04-07 23:58 | 28.83116 | -80.47441 | 14023 ft | 364 kts | 255° |
| 2026-04-07 23:58 | 28.82701 | -80.50233 | 13852 ft | 356 kts | 264° |
| 2026-04-07 23:58 | 28.82503 | -80.53062 | 13668 ft | 359 kts | 265° |
| 2026-04-07 23:59 | 28.82317 | -80.55926 | 13499 ft | 363 kts | 265° |
| 2026-04-07 23:59 | 28.82119 | -80.58803 | 13314 ft | 366 kts | 265° |
| 2026-04-07 23:59 | 28.81907 | -80.61695 | 13146 ft | 366 kts | 265° |
| 2026-04-07 23:59 | 28.81684 | -80.64584 | 12965 ft | 364 kts | 265° |
| 2026-04-08 00:00 | 28.81455 | -80.67459 | 12802 ft | 363 kts | 265° |
| 2026-04-08 00:00 | 28.81223 | -80.70312 | 12645 ft | 359 kts | 265° |
| 2026-04-08 00:00 | 28.80990 | -80.73143 | 12480 ft | 360 kts | 265° |
| 2026-04-08 00:00 | 28.80754 | -80.75996 | 12321 ft | 364 kts | 265° |
| 2026-04-08 00:01 | 28.80514 | -80.78880 | 12159 ft | 365 kts | 265° |
| 2026-04-08 00:01 | 28.80356 | -80.80777 | 12053 ft | 362 kts | 265° |
| 2026-04-08 00:01 | 28.80118 | -80.83629 | 11885 ft | 361 kts | 265° |
| 2026-04-08 00:01 | 28.79880 | -80.86464 | 11727 ft | 359 kts | 265° |
| 2026-04-08 00:02 | 28.79643 | -80.89297 | 11565 ft | 360 kts | 265° |
| 2026-04-08 00:02 | 28.79403 | -80.92157 | 11417 ft | 364 kts | 265° |
| 2026-04-08 00:02 | 28.79163 | -80.95023 | 11258 ft | 363 kts | 265° |
| 2026-04-08 00:02 | 28.78921 | -80.97873 | 11105 ft | 360 kts | 265° |
| 2026-04-08 00:03 | 28.78680 | -81.00701 | 10953 ft | 354 kts | 264° |
| 2026-04-08 00:03 | 28.76833 | -81.05505 | 10638 ft | 322 kts | 232° |
| 2026-04-08 00:03 | 28.75425 | -81.07419 | 10496 ft | 310 kts | 232° |
| 2026-04-08 00:04 | 28.74094 | -81.09293 | 10360 ft | 299 kts | 232° |
| 2026-04-08 00:04 | 28.72805 | -81.11121 | 10232 ft | 293 kts | 233° |
| 2026-04-08 00:04 | 28.71532 | -81.12926 | 10109 ft | 291 kts | 232° |
| 2026-04-08 00:04 | 28.70047 | -81.14421 | 9933 ft | 294 kts | 209° |
| 2026-04-08 00:05 | 28.68089 | -81.15115 | 9694 ft | 289 kts | 193° |
| 2026-04-08 00:05 | 28.66120 | -81.15593 | 9444 ft | 289 kts | 194° |
| 2026-04-08 00:05 | 28.64168 | -81.16092 | 9190 ft | 286 kts | 194° |
| 2026-04-08 00:05 | 28.62260 | -81.16583 | 8954 ft | 284 kts | 193° |
| 2026-04-08 00:06 | 28.60320 | -81.17084 | 8710 ft | 281 kts | 193° |
| 2026-04-08 00:06 | 28.58406 | -81.17579 | 8476 ft | 283 kts | 192° |
| 2026-04-08 00:06 | 28.56500 | -81.18075 | 8246 ft | 286 kts | 192° |
| 2026-04-08 00:06 | 28.54547 | -81.18578 | 7985 ft | 282 kts | 190° |
| 2026-04-08 00:07 | 28.52626 | -81.18788 | 7737 ft | 276 kts | 177° |
| 2026-04-08 00:07 | 28.50708 | -81.18755 | 7529 ft | 276 kts | 176° |
| 2026-04-08 00:07 | 28.48810 | -81.18716 | 7289 ft | 276 kts | 177° |
| 2026-04-08 00:07 | 28.46896 | -81.18706 | 7033 ft | 274 kts | 176° |
| 2026-04-08 00:08 | 28.45000 | -81.18712 | 6807 ft | 272 kts | 176° |
| 2026-04-08 00:08 | 28.43104 | -81.18723 | 6557 ft | 271 kts | 177° |
| 2026-04-08 00:08 | 28.41221 | -81.18737 | 6309 ft | 270 kts | 176° |
| 2026-04-08 00:08 | 28.39346 | -81.18750 | 6054 ft | 269 kts | 176° |
| 2026-04-08 00:09 | 28.37485 | -81.18763 | 5823 ft | 267 kts | 176° |
| 2026-04-08 00:09 | 28.35629 | -81.18777 | 5575 ft | 266 kts | 176° |
| 2026-04-08 00:09 | 28.33790 | -81.18791 | 5363 ft | 263 kts | 175° |
| 2026-04-08 00:09 | 28.31963 | -81.18805 | 5124 ft | 260 kts | 176° |
| 2026-04-08 00:10 | 28.30186 | -81.18790 | 5030 ft | 248 kts | 172° |
| 2026-04-08 00:10 | 28.28480 | -81.18644 | 4803 ft | 250 kts | 169° |
| 2026-04-08 00:10 | 28.26669 | -81.18427 | 4026 ft | 271 kts | 167° |
| 2026-04-08 00:10 | 28.24780 | -81.18152 | 3644 ft | 272 kts | 166° |
| 2026-04-08 00:11 | 28.22938 | -81.17865 | 3520 ft | 264 kts | 164° |
| 2026-04-08 00:11 | 28.21157 | -81.17545 | 3387 ft | 255 kts | 163° |
| 2026-04-08 00:11 | 28.19434 | -81.17252 | 3247 ft | 246 kts | 166° |
| 2026-04-08 00:11 | 28.17751 | -81.17434 | 3105 ft | 247 kts | 197° |
| 2026-04-08 00:12 | 28.16395 | -81.18552 | 3057 ft | 236 kts | 233° |
| 2026-04-08 00:12 | 28.15802 | -81.20184 | 2989 ft | 218 kts | 272° |
| 2026-04-08 00:12 | 28.16000 | -81.21804 | 2996 ft | 203 kts | 294° |
| 2026-04-08 00:12 | 28.16345 | -81.23377 | 3001 ft | 208 kts | 293° |
| 2026-04-08 00:13 | 28.16684 | -81.24972 | 2989 ft | 209 kts | 292° |
| 2026-04-08 00:13 | 28.17028 | -81.26570 | 2972 ft | 208 kts | 294° |
| 2026-04-08 00:13 | 28.17601 | -81.27958 | 2965 ft | 182 kts | 328° |
| 2026-04-08 00:13 | 28.18649 | -81.28507 | 3003 ft | 159 kts | 11° |
| 2026-04-08 00:14 | 28.19718 | -81.28344 | 3013 ft | 157 kts | 17° |
| 2026-04-08 00:14 | 28.20808 | -81.28202 | 3001 ft | 157 kts | 15° |
| 2026-04-08 00:14 | 28.21881 | -81.28111 | 2999 ft | 149 kts | 12° |
| 2026-04-08 00:14 | 28.22871 | -81.28080 | 2973 ft | 135 kts | 12° |
| 2026-04-08 00:15 | 28.23808 | -81.28068 | 3010 ft | 135 kts | 11° |
| 2026-04-08 00:15 | 28.24736 | -81.28068 | 3006 ft | 131 kts | 11° |
| 2026-04-08 00:15 | 28.25628 | -81.28073 | 3022 ft | 126 kts | 11° |
| 2026-04-08 00:15 | 28.26500 | -81.28079 | 3009 ft | 125 kts | 12° |
| 2026-04-08 00:16 | 28.27383 | -81.28084 | 2927 ft | 129 kts | 11° |
| 2026-04-08 00:16 | 28.28272 | -81.28094 | 2772 ft | 126 kts | 11° |
| 2026-04-08 00:16 | 28.29144 | -81.28103 | 2597 ft | 126 kts | 11° |
| 2026-04-08 00:16 | 28.30030 | -81.28110 | 2439 ft | 128 kts | 10° |
| 2026-04-08 00:17 | 28.30926 | -81.28120 | 2269 ft | 129 kts | 9° |
| 2026-04-08 00:17 | 28.31822 | -81.28130 | 2108 ft | 129 kts | 9° |
| 2026-04-08 00:17 | 28.32717 | -81.28139 | 1923 ft | 128 kts | 10° |
| 2026-04-08 00:17 | 28.33603 | -81.28148 | 1766 ft | 127 kts | 9° |
| 2026-04-08 00:18 | 28.34483 | -81.28158 | 1599 ft | 126 kts | 9° |
| 2026-04-08 00:18 | 28.35355 | -81.28166 | 1434 ft | 125 kts | 9° |
| 2026-04-08 00:18 | 28.36222 | -81.28173 | 1255 ft | 131 kts | 8° |
| 2026-04-08 00:18 | 28.37139 | -81.28184 | 1079 ft | 132 kts | 8° |
| 2026-04-08 00:19 | 28.38052 | -81.28191 | 893 ft | 131 kts | 5° |
| 2026-04-08 00:19 | 28.38984 | -81.28204 | 745 ft | 138 kts | 5° |
| 2026-04-08 00:19 | 28.39955 | -81.28214 | 524 ft | 140 kts | 1° |
| 2026-04-08 00:19 | 28.40906 | -81.28229 | 318 ft | 127 kts | 2° |
| 2026-04-08 00:20 | 28.41761 | -81.28230 | 172 ft | 126 kts | 6° |
| 2026-04-08 00:20 | 28.42612 | -81.28236 | 110 ft | 100 kts | 359° |
| 2026-04-08 00:20 | 28.43013 | -81.28242 | 107 ft | 39 kts | 0° |
| 2026-04-08 00:20 | 28.43266 | -81.28245 | 107 ft | 33 kts | 359° |
| 2026-04-08 00:21 | 28.43471 | -81.28269 | 107 ft | 27 kts | 334° |
| 2026-04-08 00:21 | 28.43565 | -81.28358 | 108 ft | 15 kts | 329° |
| 2026-04-08 00:21 | 28.43669 | -81.28375 | 109 ft | 15 kts | 0° |
| 2026-04-08 00:21 | 28.43775 | -81.28376 | 110 ft | 15 kts | 360° |
| 2026-04-08 00:22 | 28.43841 | -81.28382 | 110 ft | 5 kts | 341° |
| 2026-04-08 00:22 | 28.43862 | -81.28409 | 110 ft | 5 kts | 297° |
| 2026-04-08 00:22 | 28.43873 | -81.28444 | 111 ft | 5 kts | 284° |
| 2026-04-08 00:22 | 28.43876 | -81.28483 | 109 ft | 5 kts | 269° |
| 2026-04-08 00:23 | 28.43876 | -81.28484 | 109 ft | 0 kts | 269° |
| 2026-04-08 00:24 | 28.43875 | -81.28494 | 110 ft | 6 kts | 269° |
| 2026-04-08 00:24 | 28.43875 | -81.28574 | 109 ft | 11 kts | 269° |
| 2026-04-08 00:24 | 28.43874 | -81.28662 | 109 ft | 11 kts | 270° |
| 2026-04-08 00:25 | 28.43874 | -81.28753 | 108 ft | 12 kts | 269° |
| 2026-04-08 00:25 | 28.43873 | -81.28862 | 108 ft | 17 kts | 269° |
| 2026-04-08 00:25 | 28.43872 | -81.29020 | 108 ft | 23 kts | 270° |
| 2026-04-08 00:25 | 28.43872 | -81.29171 | 107 ft | 8 kts | 269° |
| 2026-04-08 00:26 | 28.43863 | -81.29230 | 105 ft | 8 kts | 246° |
| 2026-04-08 00:26 | 28.43821 | -81.29262 | 108 ft | 8 kts | 187° |
| 2026-04-08 00:26 | 28.43768 | -81.29264 | 107 ft | 8 kts | 180° |
| 2026-04-08 00:26 | 28.43714 | -81.29265 | 107 ft | 8 kts | 180° |
| 2026-04-08 00:27 | 28.43661 | -81.29264 | 107 ft | 8 kts | 179° |
| 2026-04-08 00:27 | 28.43607 | -81.29264 | 107 ft | 8 kts | 181° |
| 2026-04-08 00:27 | 28.43562 | -81.29291 | 109 ft | 8 kts | 238° |
| 2026-04-08 00:27 | 28.43555 | -81.29350 | 110 ft | 8 kts | 267° |
| 2026-04-08 00:28 | 28.43553 | -81.29401 | 110 ft | 6 kts | 268° |
| 2026-04-08 00:28 | 28.43552 | -81.29456 | 108 ft | 10 kts | 269° |
| 2026-04-08 00:28 | 28.43551 | -81.29570 | 109 ft | 19 kts | 269° |
| 2026-04-08 00:28 | 28.43550 | -81.29730 | 108 ft | 15 kts | 270° |
| 2026-04-08 00:29 | 28.43525 | -81.29797 | 108 ft | 9 kts | 215° |
| 2026-04-08 00:29 | 28.43460 | -81.29806 | 108 ft | 12 kts | 179° |
| 2026-04-08 00:29 | 28.43349 | -81.29805 | 108 ft | 17 kts | 179° |
| 2026-04-08 00:29 | 28.43231 | -81.29802 | 108 ft | 17 kts | 179° |
| 2026-04-08 00:30 | 28.43113 | -81.29799 | 108 ft | 17 kts | 179° |
| 2026-04-08 00:30 | 28.42996 | -81.29798 | 108 ft | 17 kts | 181° |
| 2026-04-08 00:30 | 28.42878 | -81.29800 | 107 ft | 17 kts | 179° |
| 2026-04-08 00:30 | 28.42760 | -81.29798 | 107 ft | 17 kts | 179° |
| 2026-04-08 00:31 | 28.42642 | -81.29796 | 107 ft | 17 kts | 179° |
| 2026-04-08 00:31 | 28.42524 | -81.29795 | 107 ft | 17 kts | 179° |
| 2026-04-08 00:31 | 28.42416 | -81.29798 | 107 ft | 12 kts | 194° |
| 2026-04-08 00:31 | 28.42365 | -81.29870 | 107 ft | 12 kts | 259° |
| 2026-04-08 00:32 | 28.42362 | -81.29970 | 108 ft | 12 kts | 269° |
| 2026-04-08 00:32 | 28.42361 | -81.30067 | 108 ft | 12 kts | 269° |
| 2026-04-08 00:32 | 28.42311 | -81.30141 | 107 ft | 13 kts | 207° |
| 2026-04-08 00:32 | 28.42277 | -81.30225 | 106 ft | 13 kts | 269° |
| 2026-04-08 00:33 | 28.42275 | -81.30354 | 106 ft | 20 kts | 268° |
| 2026-04-08 00:33 | 28.42267 | -81.30508 | 109 ft | 20 kts | 265° |
| 2026-04-08 00:33 | 28.42255 | -81.30662 | 109 ft | 20 kts | 265° |
| 2026-04-08 00:33 | 28.42244 | -81.30816 | 107 ft | 20 kts | 265° |
| 2026-04-08 00:34 | 28.42235 | -81.30977 | 107 ft | 20 kts | 268° |
| 2026-04-08 00:34 | 28.42251 | -81.31141 | 105 ft | 19 kts | 280° |
| 2026-04-08 00:34 | 28.42268 | -81.31277 | 105 ft | 17 kts | 274° |
| 2026-04-08 00:34 | 28.42268 | -81.31412 | 106 ft | 17 kts | 269° |
| 2026-04-08 00:35 | 28.42267 | -81.31547 | 106 ft | 17 kts | 270° |
| 2026-04-08 00:35 | 28.42267 | -81.31682 | 108 ft | 17 kts | 270° |
| 2026-04-08 00:35 | 28.42267 | -81.31806 | 111 ft | 8 kts | 265° |
| 2026-04-08 00:35 | 28.42227 | -81.31842 | 108 ft | 8 kts | 193° |
| 2026-04-08 00:36 | 28.42165 | -81.31860 | 109 ft | 12 kts | 195° |
| 2026-04-08 00:36 | 28.42070 | -81.31879 | 109 ft | 15 kts | 181° |
| 2026-04-08 00:36 | 28.41962 | -81.31877 | 107 ft | 16 kts | 179° |
| 2026-04-08 00:36 | 28.41852 | -81.31875 | 107 ft | 16 kts | 179° |
| 2026-04-08 00:37 | 28.41742 | -81.31873 | 108 ft | 16 kts | 179° |
| 2026-04-08 00:37 | 28.41632 | -81.31872 | 105 ft | 16 kts | 180° |
| 2026-04-08 00:37 | 28.41555 | -81.31912 | 104 ft | 12 kts | 241° |